Puerto Banus, Marbella

>

This is an optional block (switch it off / on) in the settings - file ($SITE['banners'] = false;)

You can display ads, any other important text or photo’s using text / html or PHP code.

You can place one or more at the top and or bottom and it can all be different for content / size .



Meteosat more information blitzortung!


Radar lluvias  rain snow radar


Visita nuestra red de sitios de meteo:

Documentation for the template used

MeteoibericaRed estaciones Meteorologicas

MeteoclimaticRed estaciones Meteorologicas



Viento Desde: 19-04-2018 23:00 Hasta: 21-04-2018 04:59 Advertencias para: Viento Nivel: Amarillo info button

Pagina Historial Weather Underground texto

Diario Resumen Diciembre 27, 2017 Unidades:  Tanto    impérial   Métrico
« Anterior Dia
Siguiente Dia »
Diario Semana Mensual Anual Personalizada
  Maxima: Minima: Media:
Temperatura: TemperatureC °F /  -17.8 °C 14.2 °F /  -9.9 °C 16.4 °F /  -8.7 °C
Punto de rocío: DewpointC °F /  -17.8 °C 8.4 °F /  -13.1 °C 10.8 °F /  -11.8 °C
Humedad: Humidity % 56 % 71 %
Velocidad del Viento: WindSpeedKMH mph /  0 km/h - 30.1 mph /  48.4 km/h
Ráfagas de viento: WindSpeedGustKMH mph /  0 km/h - -
Viento:- - West
Pression baro: PressurehPa in /  0 hPa 1014.1 in /  34337.4 hPa -
Précipitaciones: 0.0 in /  0 mm    
Historical Graphs
 
 
Datos de tabla para Diciembre 27, 2017
Tiempo Temperatura Punto de rocío Pression baro Viento Velocidad del Viento Ráfagas de viento Humedad Las precipitaciones Rate ( Hora )
TemperatureC °F /  -17.8 °C DewpointC °F /  -17.8 °C PressurehPa in /  0 hPa Calm     Humidity % HourlyPrecipMM in /  0 mm
00:02 15.3 °F /  -9.3 °C 9.8 °F /  -12.3 °C 1020.2 in /  34544 hPa West 18.5 mph /  29.8 km/h 18.5 mph /  29.8 km/h 70 % 0.0 in /  0 mm
00:07 15.1 °F /  -9.4 °C 9.7 °F /  -12.4 °C 1020.2 in /  34544 hPa West 11.1 mph /  17.9 km/h 11.1 mph /  17.9 km/h 70 % 0.0 in /  0 mm
00:12 15.1 °F /  -9.4 °C 9.4 °F /  -12.6 °C 1019.9 in /  34533.8 hPa West 16.7 mph /  26.9 km/h 16.7 mph /  26.9 km/h 69 % 0.0 in /  0 mm
00:13 15.1 °F /  -9.4 °C 9.4 °F /  -12.6 °C 1019.9 in /  34533.8 hPa WSW 16.1 mph /  25.9 km/h 16.1 mph /  25.9 km/h 69 % 0.0 in /  0 mm
00:18 15.3 °F /  -9.3 °C 9.4 °F /  -12.6 °C 1019.9 in /  34533.8 hPa WSW 16.1 mph /  25.9 km/h 16.1 mph /  25.9 km/h 68 % 0.0 in /  0 mm
00:22 15.3 °F /  -9.3 °C 9.4 °F /  -12.6 °C 1019.9 in /  34533.8 hPa WSW 9.3 mph /  15 km/h 9.3 mph /  15 km/h 68 % 0.0 in /  0 mm
00:24 15.3 °F /  -9.3 °C 9.4 °F /  -12.6 °C 1019.9 in /  34533.8 hPa SW 13.0 mph /  20.9 km/h 13.0 mph /  20.9 km/h 68 % 0.0 in /  0 mm
00:27 15.4 °F /  -9.2 °C 9.3 °F /  -12.6 °C 1019.9 in /  34533.8 hPa WSW 14.8 mph /  23.8 km/h 14.8 mph /  23.8 km/h 67 % 0.0 in /  0 mm
00:29 15.4 °F /  -9.2 °C 9.3 °F /  -12.6 °C 1019.9 in /  34533.8 hPa WSW 14.8 mph /  23.8 km/h 14.8 mph /  23.8 km/h 67 % 0.0 in /  0 mm
00:32 15.5 °F /  -9.2 °C 9.8 °F /  -12.3 °C 1019.9 in /  34533.8 hPa WSW 14.8 mph /  23.8 km/h 14.8 mph /  23.8 km/h 69 % 0.0 in /  0 mm
00:34 15.5 °F /  -9.2 °C 9.8 °F /  -12.3 °C 1019.9 in /  34533.8 hPa West 9.7 mph /  15.6 km/h 9.7 mph /  15.6 km/h 69 % 0.0 in /  0 mm
00:38 15.4 °F /  -9.2 °C 9.6 °F /  -12.4 °C 1019.5 in /  34520.3 hPa South 14.5 mph /  23.3 km/h 14.5 mph /  23.3 km/h 68 % 0.0 in /  0 mm
00:41 15.5 °F /  -9.2 °C 8.9 °F /  -12.8 °C 1019.5 in /  34520.3 hPa SE 18.5 mph /  29.8 km/h 18.5 mph /  29.8 km/h 65 % 0.0 in /  0 mm
00:43 15.6 °F /  -9.1 °C 9.0 °F /  -12.8 °C 1019.5 in /  34520.3 hPa South 13.0 mph /  20.9 km/h 13.0 mph /  20.9 km/h 65 % 0.0 in /  0 mm
00:48 15.7 °F /  -9.1 °C 9.6 °F /  -12.4 °C 1019.5 in /  34520.3 hPa SW 9.3 mph /  15 km/h 9.3 mph /  15 km/h 67 % 0.0 in /  0 mm
00:49 15.7 °F /  -9.1 °C 9.6 °F /  -12.4 °C 1019.2 in /  34510.1 hPa SW 9.3 mph /  15 km/h 9.3 mph /  15 km/h 67 % 0.0 in /  0 mm
00:51 15.7 °F /  -9.1 °C 9.6 °F /  -12.4 °C 1019.2 in /  34510.1 hPa SW 7.4 mph /  11.9 km/h 7.4 mph /  11.9 km/h 67 % 0.0 in /  0 mm
00:55 15.6 °F /  -9.1 °C 9.7 °F /  -12.4 °C 1019.2 in /  34510.1 hPa WSW 5.6 mph /  9 km/h 5.6 mph /  9 km/h 68 % 0.0 in /  0 mm
01:00 15.6 °F /  -9.1 °C 9.4 °F /  -12.6 °C 1019.2 in /  34510.1 hPa WSW 14.8 mph /  23.8 km/h 14.8 mph /  23.8 km/h 67 % 0.0 in /  0 mm
01:05 15.6 °F /  -9.1 °C 9.2 °F /  -12.7 °C 1019.5 in /  34520.3 hPa WNW 7.4 mph /  11.9 km/h 7.4 mph /  11.9 km/h 66 % 0.0 in /  0 mm
01:10 15.6 °F /  -9.1 °C 9.0 °F /  -12.8 °C 1019.2 in /  34510.1 hPa West 20.4 mph /  32.8 km/h 20.4 mph /  32.8 km/h 65 % 0.0 in /  0 mm
01:14 15.6 °F /  -9.1 °C 8.8 °F /  -12.9 °C 1019.2 in /  34510.1 hPa NW 16.7 mph /  26.9 km/h 16.7 mph /  26.9 km/h 64 % 0.0 in /  0 mm
01:16 15.6 °F /  -9.1 °C 8.8 °F /  -12.9 °C 1019.2 in /  34510.1 hPa WSW 7.4 mph /  11.9 km/h 7.4 mph /  11.9 km/h 64 % 0.0 in /  0 mm
01:21 15.7 °F /  -9.1 °C 8.9 °F /  -12.8 °C 1019.2 in /  34510.1 hPa West 11.3 mph /  18.2 km/h 11.3 mph /  18.2 km/h 64 % 0.0 in /  0 mm
01:22 15.7 °F /  -9.1 °C 8.9 °F /  -12.8 °C 1018.8 in /  34496.6 hPa West 11.1 mph /  17.9 km/h 11.1 mph /  17.9 km/h 64 % 0.0 in /  0 mm
01:25 15.7 °F /  -9.1 °C 8.9 °F /  -12.8 °C 1019.2 in /  34510.1 hPa West 13.0 mph /  20.9 km/h 13.0 mph /  20.9 km/h 64 % 0.0 in /  0 mm
01:29 15.7 °F /  -9.1 °C 9.1 °F /  -12.7 °C 1019.2 in /  34510.1 hPa WNW 6.4 mph /  10.3 km/h 6.4 mph /  10.3 km/h 65 % 0.0 in /  0 mm
01:34 15.7 °F /  -9.1 °C 9.1 °F /  -12.7 °C 1018.8 in /  34496.6 hPa NW 11.1 mph /  17.9 km/h 11.1 mph /  17.9 km/h 65 % 0.0 in /  0 mm
01:39 15.7 °F /  -9.1 °C 9.1 °F /  -12.7 °C 1018.8 in /  34496.6 hPa West 14.8 mph /  23.8 km/h 14.8 mph /  23.8 km/h 65 % 0.0 in /  0 mm
01:40 15.7 °F /  -9.1 °C 9.1 °F /  -12.7 °C 1018.8 in /  34496.6 hPa West 14.8 mph /  23.8 km/h 14.8 mph /  23.8 km/h 65 % 0.0 in /  0 mm
01:45 15.7 °F /  -9.1 °C 9.3 °F /  -12.6 °C 1018.5 in /  34486.4 hPa West 9.3 mph /  15 km/h 9.3 mph /  15 km/h 66 % 0.0 in /  0 mm
01:50 15.7 °F /  -9.1 °C 9.3 °F /  -12.6 °C 1018.5 in /  34486.4 hPa WNW 8.0 mph /  12.9 km/h 12.9 mph /  20.8 km/h 66 % 0.0 in /  0 mm
01:54 15.6 °F /  -9.1 °C 9.4 °F /  -12.6 °C 1018.5 in /  34486.4 hPa WNW 18.5 mph /  29.8 km/h 18.5 mph /  29.8 km/h 67 % 0.0 in /  0 mm
01:56 15.6 °F /  -9.1 °C 9.4 °F /  -12.6 °C 1018.5 in /  34486.4 hPa West 16.7 mph /  26.9 km/h 16.7 mph /  26.9 km/h 67 % 0.0 in /  0 mm
02:00 15.5 °F /  -9.2 °C 9.6 °F /  -12.4 °C 1018.5 in /  34486.4 hPa WNW 9.7 mph /  15.6 km/h 22.5 mph /  36.2 km/h 68 % 0.0 in /  0 mm
02:02 15.5 °F /  -9.2 °C 9.6 °F /  -12.4 °C 1018.5 in /  34486.4 hPa West 18.5 mph /  29.8 km/h 18.5 mph /  29.8 km/h 68 % 0.0 in /  0 mm
02:07 15.4 °F /  -9.2 °C 9.6 °F /  -12.4 °C 1018.2 in /  34476.3 hPa WNW 20.9 mph /  33.6 km/h 20.9 mph /  33.6 km/h 68 % 0.0 in /  0 mm
02:12 15.4 °F /  -9.2 °C 9.6 °F /  -12.4 °C 1018.2 in /  34476.3 hPa WNW 14.8 mph /  23.8 km/h 14.8 mph /  23.8 km/h 68 % 0.0 in /  0 mm
02:13 15.4 °F /  -9.2 °C 9.6 °F /  -12.4 °C 1018.2 in /  34476.3 hPa West 16.7 mph /  26.9 km/h 16.7 mph /  26.9 km/h 68 % 0.0 in /  0 mm
02:18 15.4 °F /  -9.2 °C 9.6 °F /  -12.4 °C 1018.2 in /  34476.3 hPa WNW 20.4 mph /  32.8 km/h 20.4 mph /  32.8 km/h 68 % 0.0 in /  0 mm
02:21 15.4 °F /  -9.2 °C 9.8 °F /  -12.3 °C 1018.2 in /  34476.3 hPa WSW 14.8 mph /  23.8 km/h 14.8 mph /  23.8 km/h 69 % 0.0 in /  0 mm
02:23 15.4 °F /  -9.2 °C 9.7 °F /  -12.4 °C 1017.8 in /  34462.7 hPa West 18.5 mph /  29.8 km/h 18.5 mph /  29.8 km/h 69 % 0.0 in /  0 mm
02:27 15.3 °F /  -9.3 °C 9.9 °F /  -12.3 °C 1017.8 in /  34462.7 hPa West 27.4 mph /  44.1 km/h 27.4 mph /  44.1 km/h 70 % 0.0 in /  0 mm
02:30 15.3 °F /  -9.3 °C 9.9 °F /  -12.3 °C 1017.8 in /  34462.7 hPa West 19.3 mph /  31.1 km/h 19.3 mph /  31.1 km/h 70 % 0.0 in /  0 mm
02:32 15.3 °F /  -9.3 °C 10.1 °F /  -12.2 °C 1017.5 in /  34452.6 hPa West 20.9 mph /  33.6 km/h 20.9 mph /  33.6 km/h 71 % 0.0 in /  0 mm
02:37 15.2 °F /  -9.3 °C 10.2 °F /  -12.1 °C 1017.5 in /  34452.6 hPa West 18.5 mph /  29.8 km/h 18.5 mph /  29.8 km/h 72 % 0.0 in /  0 mm
02:39 15.2 °F /  -9.3 °C 10.2 °F /  -12.1 °C 1017.5 in /  34452.6 hPa WSW 27.8 mph /  44.7 km/h 27.8 mph /  44.7 km/h 72 % 0.0 in /  0 mm
02:44 15.1 °F /  -9.4 °C 10.3 °F /  -12.1 °C 1017.5 in /  34452.6 hPa West 27.8 mph /  44.7 km/h 27.8 mph /  44.7 km/h 73 % 0.0 in /  0 mm
02:45 15.1 °F /  -9.4 °C 10.4 °F /  -12 °C 1017.5 in /  34452.6 hPa WSW 20.4 mph /  32.8 km/h 20.4 mph /  32.8 km/h 74 % 0.0 in /  0 mm
02:50 15.1 °F /  -9.4 °C 10.4 °F /  -12 °C 1017.5 in /  34452.6 hPa West 25.9 mph /  41.7 km/h 25.9 mph /  41.7 km/h 74 % 0.0 in /  0 mm
02:55 15.1 °F /  -9.4 °C 10.4 °F /  -12 °C 1017.2 in /  34442.4 hPa West 25.9 mph /  41.7 km/h 25.9 mph /  41.7 km/h 74 % 0.0 in /  0 mm
02:57 15.1 °F /  -9.4 °C 10.4 °F /  -12 °C 1017.5 in /  34452.6 hPa West 22.2 mph /  35.7 km/h 22.2 mph /  35.7 km/h 74 % 0.0 in /  0 mm
03:02 15.1 °F /  -9.4 °C 10.5 °F /  -11.9 °C 1017.2 in /  34442.4 hPa WSW 27.8 mph /  44.7 km/h 27.8 mph /  44.7 km/h 74 % 0.0 in /  0 mm
03:03 15.1 °F /  -9.4 °C 10.5 °F /  -11.9 °C 1017.2 in /  34442.4 hPa West 27.8 mph /  44.7 km/h 27.8 mph /  44.7 km/h 74 % 0.0 in /  0 mm
03:08 15.2 °F /  -9.3 °C 10.8 °F /  -11.8 °C 1017.5 in /  34452.6 hPa WNW 20.9 mph /  33.6 km/h 20.9 mph /  33.6 km/h 75 % 0.0 in /  0 mm
03:11 15.2 °F /  -9.3 °C 10.6 °F /  -11.9 °C 1017.2 in /  34442.4 hPa West 20.4 mph /  32.8 km/h 20.4 mph /  32.8 km/h 74 % 0.0 in /  0 mm
03:13 15.2 °F /  -9.3 °C 10.6 °F /  -11.9 °C 1017.2 in /  34442.4 hPa West 25.9 mph /  41.7 km/h 25.9 mph /  41.7 km/h 74 % 0.0 in /  0 mm
03:17 15.2 °F /  -9.3 °C 10.6 °F /  -11.9 °C 1016.8 in /  34428.8 hPa West 20.4 mph /  32.8 km/h 20.4 mph /  32.8 km/h 74 % 0.0 in /  0 mm
03:18 15.2 °F /  -9.3 °C 10.6 °F /  -11.9 °C 1016.8 in /  34428.8 hPa West 27.8 mph /  44.7 km/h 27.8 mph /  44.7 km/h 74 % 0.0 in /  0 mm
03:23 15.3 °F /  -9.3 °C 10.7 °F /  -11.8 °C 1016.5 in /  34418.7 hPa West 33.3 mph /  53.6 km/h 33.3 mph /  53.6 km/h 74 % 0.0 in /  0 mm
03:28 15.3 °F /  -9.3 °C 10.7 °F /  -11.8 °C 1016.8 in /  34428.8 hPa West 33.3 mph /  53.6 km/h 33.3 mph /  53.6 km/h 74 % 0.0 in /  0 mm
03:29 15.3 °F /  -9.3 °C 10.7 °F /  -11.8 °C 1016.8 in /  34428.8 hPa West 33.3 mph /  53.6 km/h 33.3 mph /  53.6 km/h 74 % 0.0 in /  0 mm
03:33 15.3 °F /  -9.3 °C 10.7 °F /  -11.8 °C 1016.8 in /  34428.8 hPa WSW 31.5 mph /  50.7 km/h 31.5 mph /  50.7 km/h 74 % 0.0 in /  0 mm
03:34 15.3 °F /  -9.3 °C 10.7 °F /  -11.8 °C 1016.8 in /  34428.8 hPa West 31.5 mph /  50.7 km/h 31.5 mph /  50.7 km/h 74 % 0.0 in /  0 mm
03:39 15.4 °F /  -9.2 °C 10.8 °F /  -11.8 °C 1016.8 in /  34428.8 hPa West 33.3 mph /  53.6 km/h 33.3 mph /  53.6 km/h 74 % 0.0 in /  0 mm
03:40 15.4 °F /  -9.2 °C 10.8 °F /  -11.8 °C 1016.8 in /  34428.8 hPa West 33.3 mph /  53.6 km/h 33.3 mph /  53.6 km/h 74 % 0.0 in /  0 mm
03:45 15.4 °F /  -9.2 °C 10.8 °F /  -11.8 °C 1016.5 in /  34418.7 hPa West 31.5 mph /  50.7 km/h 31.5 mph /  50.7 km/h 74 % 0.0 in /  0 mm
03:50 15.4 °F /  -9.2 °C 10.8 °F /  -11.8 °C 1016.5 in /  34418.7 hPa West 42.6 mph /  68.6 km/h 42.6 mph /  68.6 km/h 74 % 0.0 in /  0 mm
03:53 15.4 °F /  -9.2 °C 10.8 °F /  -11.8 °C 1016.5 in /  34418.7 hPa WSW 42.6 mph /  68.6 km/h 42.6 mph /  68.6 km/h 74 % 0.0 in /  0 mm
03:57 15.5 °F /  -9.2 °C 11.1 °F /  -11.6 °C 1016.5 in /  34418.7 hPa West 37.0 mph /  59.5 km/h 37.0 mph /  59.5 km/h 75 % 0.0 in /  0 mm
04:00 15.4 °F /  -9.2 °C 11.1 °F /  -11.6 °C 1016.5 in /  34418.7 hPa WSW 38.9 mph /  62.6 km/h 38.9 mph /  62.6 km/h 75 % 0.0 in /  0 mm
04:03 15.4 °F /  -9.2 °C 11.1 °F /  -11.6 °C 1016.5 in /  34418.7 hPa WSW 46.3 mph /  74.5 km/h 46.3 mph /  74.5 km/h 75 % 0.0 in /  0 mm
04:07 15.4 °F /  -9.2 °C 11.2 °F /  -11.6 °C 1016.1 in /  34405.1 hPa West 42.6 mph /  68.6 km/h 42.6 mph /  68.6 km/h 76 % 0.0 in /  0 mm
04:08 15.4 °F /  -9.2 °C 11.2 °F /  -11.6 °C 1016.5 in /  34418.7 hPa WSW 45.1 mph /  72.6 km/h 45.1 mph /  72.6 km/h 76 % 0.0 in /  0 mm
04:13 15.3 °F /  -9.3 °C 11.1 °F /  -11.6 °C 1016.5 in /  34418.7 hPa West 38.9 mph /  62.6 km/h 38.9 mph /  62.6 km/h 76 % 0.0 in /  0 mm
04:18 15.3 °F /  -9.3 °C 11.3 °F /  -11.5 °C 1016.1 in /  34405.1 hPa West 46.7 mph /  75.2 km/h 46.7 mph /  75.2 km/h 77 % 0.0 in /  0 mm
04:22 15.3 °F /  -9.3 °C 11.4 °F /  -11.4 °C 1016.5 in /  34418.7 hPa West 38.9 mph /  62.6 km/h 38.9 mph /  62.6 km/h 78 % 0.0 in /  0 mm
04:24 15.2 °F /  -9.3 °C 11.4 °F /  -11.4 °C 1016.5 in /  34418.7 hPa West 50.0 mph /  80.5 km/h 50.0 mph /  80.5 km/h 78 % 0.0 in /  0 mm
04:28 15.2 °F /  -9.3 °C 11.3 °F /  -11.5 °C 1016.5 in /  34418.7 hPa West 42.6 mph /  68.6 km/h 42.6 mph /  68.6 km/h 78 % 0.0 in /  0 mm
04:31 15.1 °F /  -9.4 °C 11.5 °F /  -11.4 °C 1016.5 in /  34418.7 hPa WSW 55.5 mph /  89.3 km/h 55.5 mph /  89.3 km/h 79 % 0.0 in /  0 mm
04:34 14.9 °F /  -9.5 °C 11.5 °F /  -11.4 °C 1016.5 in /  34418.7 hPa West 53.7 mph /  86.4 km/h 53.7 mph /  86.4 km/h 80 % 0.0 in /  0 mm
04:39 14.8 °F /  -9.6 °C 11.6 °F /  -11.3 °C 1016.1 in /  34405.1 hPa West 40.7 mph /  65.5 km/h 40.7 mph /  65.5 km/h 81 % 0.0 in /  0 mm
04:40 14.9 °F /  -9.5 °C 11.7 °F /  -11.3 °C 1016.5 in /  34418.7 hPa WSW 40.7 mph /  65.5 km/h 40.7 mph /  65.5 km/h 81 % 0.0 in /  0 mm
04:41 14.8 °F /  -9.6 °C 11.6 °F /  -11.3 °C 1016.1 in /  34405.1 hPa WSW 48.1 mph /  77.4 km/h 48.1 mph /  77.4 km/h 81 % 0.0 in /  0 mm
04:46 14.8 °F /  -9.6 °C 11.7 °F /  -11.3 °C 1016.1 in /  34405.1 hPa West 51.8 mph /  83.4 km/h 51.8 mph /  83.4 km/h 82 % 0.0 in /  0 mm
04:47 14.8 °F /  -9.6 °C 11.7 °F /  -11.3 °C 1016.1 in /  34405.1 hPa WSW 53.1 mph /  85.5 km/h 53.1 mph /  85.5 km/h 82 % 0.0 in /  0 mm
04:52 14.7 °F /  -9.6 °C 11.8 °F /  -11.2 °C 1016.1 in /  34405.1 hPa WSW 55.5 mph /  89.3 km/h 55.5 mph /  89.3 km/h 83 % 0.0 in /  0 mm
04:53 14.7 °F /  -9.6 °C 11.8 °F /  -11.2 °C 1016.1 in /  34405.1 hPa WSW 55.5 mph /  89.3 km/h 55.5 mph /  89.3 km/h 83 % 0.0 in /  0 mm
04:58 14.6 °F /  -9.7 °C 11.9 °F /  -11.2 °C 1015.8 in /  34395 hPa WSW 50.0 mph /  80.5 km/h 50.0 mph /  80.5 km/h 84 % 0.0 in /  0 mm
05:04 14.4 °F /  -9.8 °C 12.1 °F /  -11.1 °C 1015.8 in /  34395 hPa WSW 51.8 mph /  83.4 km/h 51.8 mph /  83.4 km/h 86 % 0.0 in /  0 mm
05:06 14.3 °F /  -9.8 °C 11.9 °F /  -11.2 °C 1015.8 in /  34395 hPa WSW 42.6 mph /  68.6 km/h 42.6 mph /  68.6 km/h 86 % 0.0 in /  0 mm
05:09 14.2 °F /  -9.9 °C 11.9 °F /  -11.2 °C 1015.8 in /  34395 hPa WSW 48.1 mph /  77.4 km/h 48.1 mph /  77.4 km/h 86 % 0.0 in /  0 mm
05:14 14.2 °F /  -9.9 °C 12.1 °F /  -11.1 °C 1015.8 in /  34395 hPa WSW 42.6 mph /  68.6 km/h 42.6 mph /  68.6 km/h 87 % 0.0 in /  0 mm
05:16 14.2 °F /  -9.9 °C 12.1 °F /  -11.1 °C 1015.8 in /  34395 hPa WSW 44.4 mph /  71.5 km/h 44.4 mph /  71.5 km/h 87 % 0.0 in /  0 mm
05:17 14.2 °F /  -9.9 °C 12.1 °F /  -11.1 °C 1016.1 in /  34405.1 hPa WSW 46.7 mph /  75.2 km/h 46.7 mph /  75.2 km/h 87 % 0.0 in /  0 mm
05:22 14.2 °F /  -9.9 °C 12.2 °F /  -11 °C 1015.8 in /  34395 hPa WSW 51.8 mph /  83.4 km/h 51.8 mph /  83.4 km/h 88 % 0.0 in /  0 mm
05:24 14.2 °F /  -9.9 °C 12.2 °F /  -11 °C 1015.8 in /  34395 hPa West 42.6 mph /  68.6 km/h 42.6 mph /  68.6 km/h 88 % 0.0 in /  0 mm
05:25 14.2 °F /  -9.9 °C 12.2 °F /  -11 °C 1015.8 in /  34395 hPa SW 42.6 mph /  68.6 km/h 42.6 mph /  68.6 km/h 88 % 0.0 in /  0 mm
05:30 14.2 °F /  -9.9 °C 12.4 °F /  -10.9 °C 1015.5 in /  34384.8 hPa WSW 42.6 mph /  68.6 km/h 42.6 mph /  68.6 km/h 89 % 0.0 in /  0 mm
05:32 14.2 °F /  -9.9 °C 12.4 °F /  -10.9 °C 1015.5 in /  34384.8 hPa WSW 44.4 mph /  71.5 km/h 44.4 mph /  71.5 km/h 89 % 0.0 in /  0 mm
05:35 14.2 °F /  -9.9 °C 12.4 °F /  -10.9 °C 1015.1 in /  34371.3 hPa West 44.4 mph /  71.5 km/h 44.4 mph /  71.5 km/h 89 % 0.0 in /  0 mm
05:38 14.3 °F /  -9.8 °C 12.5 °F /  -10.8 °C 1015.1 in /  34371.3 hPa WSW 46.3 mph /  74.5 km/h 46.3 mph /  74.5 km/h 89 % 0.0 in /  0 mm
05:40 14.3 °F /  -9.8 °C 12.6 °F /  -10.8 °C 1015.5 in /  34384.8 hPa WSW 50.0 mph /  80.5 km/h 50.0 mph /  80.5 km/h 89 % 0.0 in /  0 mm
05:45 14.3 °F /  -9.8 °C 12.5 °F /  -10.8 °C 1015.1 in /  34371.3 hPa WSW 49.9 mph /  80.3 km/h 49.9 mph /  80.3 km/h 89 % 0.0 in /  0 mm
05:46 14.3 °F /  -9.8 °C 12.6 °F /  -10.8 °C 1015.1 in /  34371.3 hPa WSW 44.4 mph /  71.5 km/h 44.4 mph /  71.5 km/h 89 % 0.0 in /  0 mm
05:47 14.3 °F /  -9.8 °C 12.6 °F /  -10.8 °C 1014.8 in /  34361.1 hPa WSW 50.0 mph /  80.5 km/h 50.0 mph /  80.5 km/h 89 % 0.0 in /  0 mm
05:51 14.3 °F /  -9.8 °C 12.6 °F /  -10.8 °C 1015.1 in /  34371.3 hPa WSW 51.8 mph /  83.4 km/h 51.8 mph /  83.4 km/h 89 % 0.0 in /  0 mm
05:54 14.3 °F /  -9.8 °C 12.6 °F /  -10.8 °C 1014.8 in /  34361.1 hPa WSW 48.1 mph /  77.4 km/h 48.1 mph /  77.4 km/h 89 % 0.0 in /  0 mm
05:57 14.4 °F /  -9.8 °C 12.6 °F /  -10.8 °C 1014.8 in /  34361.1 hPa WSW 55.5 mph /  89.3 km/h 55.5 mph /  89.3 km/h 89 % 0.0 in /  0 mm
06:00 14.4 °F /  -9.8 °C 12.8 °F /  -10.7 °C 1014.8 in /  34361.1 hPa WSW 51.8 mph /  83.4 km/h 51.8 mph /  83.4 km/h 90 % 0.0 in /  0 mm
06:02 14.4 °F /  -9.8 °C 12.8 °F /  -10.7 °C 1014.4 in /  34347.6 hPa WSW 51.8 mph /  83.4 km/h 51.8 mph /  83.4 km/h 90 % 0.0 in /  0 mm
06:07 14.4 °F /  -9.8 °C 12.8 °F /  -10.7 °C 1014.8 in /  34361.1 hPa WSW 42.6 mph /  68.6 km/h 42.6 mph /  68.6 km/h 90 % 0.0 in /  0 mm
06:09 14.4 °F /  -9.8 °C 12.8 °F /  -10.7 °C 1014.4 in /  34347.6 hPa WSW 50.0 mph /  80.5 km/h 50.0 mph /  80.5 km/h 90 % 0.0 in /  0 mm
06:14 14.5 °F /  -9.7 °C 12.9 °F /  -10.6 °C 1014.4 in /  34347.6 hPa WSW 42.6 mph /  68.6 km/h 42.6 mph /  68.6 km/h 90 % 0.0 in /  0 mm
06:15 14.5 °F /  -9.7 °C 12.9 °F /  -10.6 °C 1014.4 in /  34347.6 hPa WSW 44.4 mph /  71.5 km/h 44.4 mph /  71.5 km/h 90 % 0.0 in /  0 mm
06:16 14.5 °F /  -9.7 °C 12.9 °F /  -10.6 °C 1014.4 in /  34347.6 hPa WSW 44.4 mph /  71.5 km/h 44.4 mph /  71.5 km/h 90 % 0.0 in /  0 mm
06:21 14.6 °F /  -9.7 °C 13.0 °F /  -10.6 °C 1014.8 in /  34361.1 hPa WSW 42.6 mph /  68.6 km/h 42.6 mph /  68.6 km/h 90 % 0.0 in /  0 mm
06:22 14.7 °F /  -9.6 °C 13.1 °F /  -10.5 °C 1014.8 in /  34361.1 hPa WSW 44.4 mph /  71.5 km/h 44.4 mph /  71.5 km/h 90 % 0.0 in /  0 mm
06:25 14.7 °F /  -9.6 °C 13.1 °F /  -10.5 °C 1014.4 in /  34347.6 hPa WSW 46.3 mph /  74.5 km/h 46.3 mph /  74.5 km/h 90 % 0.0 in /  0 mm
06:27 14.7 °F /  -9.6 °C 12.9 °F /  -10.6 °C 1014.8 in /  34361.1 hPa WSW 42.6 mph /  68.6 km/h 42.6 mph /  68.6 km/h 89 % 0.0 in /  0 mm
06:32 14.8 °F /  -9.6 °C 13.0 °F /  -10.6 °C 1014.8 in /  34361.1 hPa WSW 51.8 mph /  83.4 km/h 51.8 mph /  83.4 km/h 89 % 0.0 in /  0 mm
06:33 14.8 °F /  -9.6 °C 13.0 °F /  -10.6 °C 1014.8 in /  34361.1 hPa WSW 45.1 mph /  72.6 km/h 45.1 mph /  72.6 km/h 89 % 0.0 in /  0 mm
06:38 14.8 °F /  -9.6 °C 13.0 °F /  -10.6 °C 1014.8 in /  34361.1 hPa WSW 42.6 mph /  68.6 km/h 42.6 mph /  68.6 km/h 89 % 0.0 in /  0 mm
06:39 14.8 °F /  -9.6 °C 13.0 °F /  -10.6 °C 1014.8 in /  34361.1 hPa West 42.6 mph /  68.6 km/h 42.6 mph /  68.6 km/h 89 % 0.0 in /  0 mm
06:43 14.8 °F /  -9.6 °C 13.0 °F /  -10.6 °C 1014.4 in /  34347.6 hPa WSW 45.1 mph /  72.6 km/h 45.1 mph /  72.6 km/h 89 % 0.0 in /  0 mm
06:44 14.8 °F /  -9.6 °C 13.0 °F /  -10.6 °C 1015.1 in /  34371.3 hPa WSW 44.4 mph /  71.5 km/h 44.4 mph /  71.5 km/h 89 % 0.0 in /  0 mm
06:48 14.8 °F /  -9.6 °C 13.2 °F /  -10.4 °C 1014.8 in /  34361.1 hPa WSW 42.6 mph /  68.6 km/h 42.6 mph /  68.6 km/h 90 % 0.0 in /  0 mm
06:53 14.8 °F /  -9.6 °C 13.2 °F /  -10.4 °C 1014.8 in /  34361.1 hPa WSW 42.6 mph /  68.6 km/h 42.6 mph /  68.6 km/h 90 % 0.0 in /  0 mm
06:54 14.8 °F /  -9.6 °C 13.2 °F /  -10.4 °C 1014.4 in /  34347.6 hPa WSW 42.6 mph /  68.6 km/h 42.6 mph /  68.6 km/h 90 % 0.0 in /  0 mm
06:59 14.8 °F /  -9.6 °C 13.2 °F /  -10.4 °C 1014.4 in /  34347.6 hPa WSW 50.0 mph /  80.5 km/h 50.0 mph /  80.5 km/h 90 % 0.0 in /  0 mm
07:00 14.8 °F /  -9.6 °C 13.2 °F /  -10.4 °C 1014.4 in /  34347.6 hPa WSW 44.4 mph /  71.5 km/h 44.4 mph /  71.5 km/h 90 % 0.0 in /  0 mm
07:05 14.9 °F /  -9.5 °C 13.3 °F /  -10.4 °C 1014.8 in /  34361.1 hPa WSW 48.1 mph /  77.4 km/h 48.1 mph /  77.4 km/h 90 % 0.0 in /  0 mm
07:07 14.9 °F /  -9.5 °C 13.3 °F /  -10.4 °C 1014.8 in /  34361.1 hPa WSW 42.6 mph /  68.6 km/h 42.6 mph /  68.6 km/h 90 % 0.0 in /  0 mm
07:09 15.0 °F /  -9.4 °C 13.4 °F /  -10.3 °C 1014.4 in /  34347.6 hPa WSW 40.7 mph /  65.5 km/h 40.7 mph /  65.5 km/h 90 % 0.0 in /  0 mm
07:13 15.1 °F /  -9.4 °C 13.4 °F /  -10.3 °C 1014.1 in /  34337.4 hPa SW 38.9 mph /  62.6 km/h 38.9 mph /  62.6 km/h 90 % 0.0 in /  0 mm
07:18 15.1 °F /  -9.4 °C 13.3 °F /  -10.4 °C 1014.4 in /  34347.6 hPa WSW 42.6 mph /  68.6 km/h 42.6 mph /  68.6 km/h 89 % 0.0 in /  0 mm
07:21 15.2 °F /  -9.3 °C 13.4 °F /  -10.3 °C 1014.4 in /  34347.6 hPa WSW 48.1 mph /  77.4 km/h 48.1 mph /  77.4 km/h 89 % 0.0 in /  0 mm
07:25 15.1 °F /  -9.4 °C 13.1 °F /  -10.5 °C 1014.1 in /  34337.4 hPa WSW 55.5 mph /  89.3 km/h 55.5 mph /  89.3 km/h 88 % 0.0 in /  0 mm
07:26 15.1 °F /  -9.4 °C 13.1 °F /  -10.5 °C 1014.1 in /  34337.4 hPa SW 55.5 mph /  89.3 km/h 55.5 mph /  89.3 km/h 88 % 0.0 in /  0 mm
07:31 15.1 °F /  -9.4 °C 13.3 °F /  -10.4 °C 1014.1 in /  34337.4 hPa SW 50.0 mph /  80.5 km/h 50.0 mph /  80.5 km/h 89 % 0.0 in /  0 mm
07:32 15.1 °F /  -9.4 °C 13.3 °F /  -10.4 °C 1014.1 in /  34337.4 hPa WSW 50.0 mph /  80.5 km/h 50.0 mph /  80.5 km/h 89 % 0.0 in /  0 mm
07:37 15.1 °F /  -9.4 °C 13.3 °F /  -10.4 °C 1014.1 in /  34337.4 hPa SW 46.3 mph /  74.5 km/h 46.3 mph /  74.5 km/h 89 % 0.0 in /  0 mm
07:41 15.1 °F /  -9.4 °C 13.3 °F /  -10.4 °C 1014.1 in /  34337.4 hPa WSW 49.9 mph /  80.3 km/h 49.9 mph /  80.3 km/h 89 % 0.0 in /  0 mm
07:42 15.1 °F /  -9.4 °C 13.3 °F /  -10.4 °C 1014.1 in /  34337.4 hPa WSW 55.5 mph /  89.3 km/h 55.5 mph /  89.3 km/h 89 % 0.0 in /  0 mm
07:48 15.1 °F /  -9.4 °C 13.3 °F /  -10.4 °C 1014.1 in /  34337.4 hPa WSW 48.1 mph /  77.4 km/h 48.1 mph /  77.4 km/h 89 % 0.0 in /  0 mm
07:50 15.2 °F /  -9.3 °C 13.4 °F /  -10.3 °C 1014.1 in /  34337.4 hPa WSW 51.8 mph /  83.4 km/h 51.8 mph /  83.4 km/h 89 % 0.0 in /  0 mm
07:53 15.2 °F /  -9.3 °C 13.4 °F /  -10.3 °C 1014.1 in /  34337.4 hPa WSW 44.4 mph /  71.5 km/h 44.4 mph /  71.5 km/h 89 % 0.0 in /  0 mm
07:55 15.2 °F /  -9.3 °C 13.4 °F /  -10.3 °C 1014.1 in /  34337.4 hPa WSW 38.6 mph /  62.1 km/h 49.9 mph /  80.3 km/h 89 % 0.0 in /  0 mm
07:59 15.2 °F /  -9.3 °C 13.4 °F /  -10.3 °C 1014.1 in /  34337.4 hPa WSW 51.8 mph /  83.4 km/h 51.8 mph /  83.4 km/h 89 % 0.0 in /  0 mm
08:02 15.2 °F /  -9.3 °C 13.2 °F /  -10.4 °C 1014.1 in /  34337.4 hPa WSW 46.3 mph /  74.5 km/h 46.3 mph /  74.5 km/h 88 % 0.0 in /  0 mm
08:05 15.3 °F /  -9.3 °C 13.3 °F /  -10.4 °C 1014.4 in /  34347.6 hPa WSW 57.4 mph /  92.4 km/h 57.4 mph /  92.4 km/h 88 % 0.0 in /  0 mm
08:08 15.3 °F /  -9.3 °C 13.3 °F /  -10.4 °C 1014.1 in /  34337.4 hPa SW 50.0 mph /  80.5 km/h 50.0 mph /  80.5 km/h 88 % 0.0 in /  0 mm
08:10 15.3 °F /  -9.3 °C 13.3 °F /  -10.4 °C 1014.4 in /  34347.6 hPa WSW 53.7 mph /  86.4 km/h 53.7 mph /  86.4 km/h 88 % 0.0 in /  0 mm
08:15 15.3 °F /  -9.3 °C 13.3 °F /  -10.4 °C 1014.4 in /  34347.6 hPa WSW 48.1 mph /  77.4 km/h 48.1 mph /  77.4 km/h 88 % 0.0 in /  0 mm
08:16 15.3 °F /  -9.3 °C 13.3 °F /  -10.4 °C 1014.1 in /  34337.4 hPa WSW 48.1 mph /  77.4 km/h 48.1 mph /  77.4 km/h 88 % 0.0 in /  0 mm
08:21 15.3 °F /  -9.3 °C 13.5 °F /  -10.3 °C 1014.1 in /  34337.4 hPa WSW 44.4 mph /  71.5 km/h 44.4 mph /  71.5 km/h 89 % 0.0 in /  0 mm
08:22 15.3 °F /  -9.3 °C 13.5 °F /  -10.3 °C 1014.1 in /  34337.4 hPa WSW 48.1 mph /  77.4 km/h 48.1 mph /  77.4 km/h 89 % 0.0 in /  0 mm
08:26 15.3 °F /  -9.3 °C 13.5 °F /  -10.3 °C 1014.4 in /  34347.6 hPa WSW 51.8 mph /  83.4 km/h 51.8 mph /  83.4 km/h 89 % 0.0 in /  0 mm
08:30 15.3 °F /  -9.3 °C 13.3 °F /  -10.4 °C 1014.1 in /  34337.4 hPa WSW 38.6 mph /  62.1 km/h 53.1 mph /  85.5 km/h 88 % 0.0 in /  0 mm
08:35 15.4 °F /  -9.2 °C 13.4 °F /  -10.3 °C 1014.4 in /  34347.6 hPa WSW 43.4 mph /  69.8 km/h 43.4 mph /  69.8 km/h 88 % 0.0 in /  0 mm
08:40 15.6 °F /  -9.1 °C 13.4 °F /  -10.3 °C 1014.4 in /  34347.6 hPa WSW 48.1 mph /  77.4 km/h 48.1 mph /  77.4 km/h 87 % 0.0 in /  0 mm
08:41 15.6 °F /  -9.1 °C 13.4 °F /  -10.3 °C 1014.4 in /  34347.6 hPa WSW 48.1 mph /  77.4 km/h 48.1 mph /  77.4 km/h 87 % 0.0 in /  0 mm
08:43 15.6 °F /  -9.1 °C 13.4 °F /  -10.3 °C 1014.4 in /  34347.6 hPa WSW 44.4 mph /  71.5 km/h 44.4 mph /  71.5 km/h 87 % 0.0 in /  0 mm
08:46 15.6 °F /  -9.1 °C 13.4 °F /  -10.3 °C 1014.4 in /  34347.6 hPa WSW 46.3 mph /  74.5 km/h 46.3 mph /  74.5 km/h 87 % 0.0 in /  0 mm
08:51 15.6 °F /  -9.1 °C 13.4 °F /  -10.3 °C 1014.8 in /  34361.1 hPa WSW 48.1 mph /  77.4 km/h 48.1 mph /  77.4 km/h 87 % 0.0 in /  0 mm
08:52 15.5 °F /  -9.2 °C 13.3 °F /  -10.4 °C 1014.4 in /  34347.6 hPa WSW 38.9 mph /  62.6 km/h 38.9 mph /  62.6 km/h 87 % 0.0 in /  0 mm
08:57 15.5 °F /  -9.2 °C 13.5 °F /  -10.3 °C 1014.8 in /  34361.1 hPa WSW 50.0 mph /  80.5 km/h 50.0 mph /  80.5 km/h 88 % 0.0 in /  0 mm
08:58 15.5 °F /  -9.2 °C 13.5 °F /  -10.3 °C 1014.4 in /  34347.6 hPa WSW 50.0 mph /  80.5 km/h 50.0 mph /  80.5 km/h 88 % 0.0 in /  0 mm
08:59 15.5 °F /  -9.2 °C 13.5 °F /  -10.3 °C 1014.4 in /  34347.6 hPa WSW 55.5 mph /  89.3 km/h 55.5 mph /  89.3 km/h 88 % 0.0 in /  0 mm
09:04 15.4 °F /  -9.2 °C 13.4 °F /  -10.3 °C 1014.4 in /  34347.6 hPa WSW 42.6 mph /  68.6 km/h 42.6 mph /  68.6 km/h 88 % 0.0 in /  0 mm
09:06 15.4 °F /  -9.2 °C 13.4 °F /  -10.3 °C 1014.4 in /  34347.6 hPa SW 42.6 mph /  68.6 km/h 42.6 mph /  68.6 km/h 88 % 0.0 in /  0 mm
09:08 15.4 °F /  -9.2 °C 13.4 °F /  -10.3 °C 1014.8 in /  34361.1 hPa WSW 49.9 mph /  80.3 km/h 49.9 mph /  80.3 km/h 88 % 0.0 in /  0 mm
09:13 15.4 °F /  -9.2 °C 13.6 °F /  -10.2 °C 1014.8 in /  34361.1 hPa WSW 46.3 mph /  74.5 km/h 46.3 mph /  74.5 km/h 89 % 0.0 in /  0 mm
09:16 15.4 °F /  -9.2 °C 13.6 °F /  -10.2 °C 1014.8 in /  34361.1 hPa SW 42.6 mph /  68.6 km/h 42.6 mph /  68.6 km/h 89 % 0.0 in /  0 mm
09:18 15.3 °F /  -9.3 °C 13.6 °F /  -10.2 °C 1014.8 in /  34361.1 hPa WSW 46.3 mph /  74.5 km/h 46.3 mph /  74.5 km/h 89 % 0.0 in /  0 mm
09:23 15.3 °F /  -9.3 °C 13.6 °F /  -10.2 °C 1014.8 in /  34361.1 hPa SW 43.4 mph /  69.8 km/h 43.4 mph /  69.8 km/h 89 % 0.0 in /  0 mm
09:24 15.3 °F /  -9.3 °C 13.6 °F /  -10.2 °C 1014.8 in /  34361.1 hPa WSW 43.4 mph /  69.8 km/h 43.4 mph /  69.8 km/h 89 % 0.0 in /  0 mm
09:29 15.3 °F /  -9.3 °C 13.5 °F /  -10.3 °C 1014.4 in /  34347.6 hPa WSW 48.1 mph /  77.4 km/h 48.1 mph /  77.4 km/h 89 % 0.0 in /  0 mm
09:32 15.3 °F /  -9.3 °C 13.7 °F /  -10.2 °C 1014.4 in /  34347.6 hPa WSW 53.1 mph /  85.5 km/h 53.1 mph /  85.5 km/h 90 % 0.0 in /  0 mm
09:37 15.3 °F /  -9.3 °C 13.7 °F /  -10.2 °C 1014.8 in /  34361.1 hPa SW 42.6 mph /  68.6 km/h 42.6 mph /  68.6 km/h 90 % 0.0 in /  0 mm
09:38 15.3 °F /  -9.3 °C 13.7 °F /  -10.2 °C 1014.8 in /  34361.1 hPa West 44.4 mph /  71.5 km/h 44.4 mph /  71.5 km/h 90 % 0.0 in /  0 mm
09:42 15.3 °F /  -9.3 °C 13.7 °F /  -10.2 °C 1014.8 in /  34361.1 hPa WSW 46.3 mph /  74.5 km/h 46.3 mph /  74.5 km/h 90 % 0.0 in /  0 mm
09:43 15.3 °F /  -9.3 °C 13.7 °F /  -10.2 °C 1015.1 in /  34371.3 hPa WSW 46.7 mph /  75.2 km/h 46.7 mph /  75.2 km/h 90 % 0.0 in /  0 mm
09:48 15.3 °F /  -9.3 °C 13.7 °F /  -10.2 °C 1014.8 in /  34361.1 hPa West 44.4 mph /  71.5 km/h 44.4 mph /  71.5 km/h 90 % 0.0 in /  0 mm
09:53 15.3 °F /  -9.3 °C 13.7 °F /  -10.2 °C 1015.1 in /  34371.3 hPa WSW 46.7 mph /  75.2 km/h 46.7 mph /  75.2 km/h 90 % 0.0 in /  0 mm
09:55 15.3 °F /  -9.3 °C 13.7 °F /  -10.2 °C 1014.8 in /  34361.1 hPa SW 46.3 mph /  74.5 km/h 46.3 mph /  74.5 km/h 90 % 0.0 in /  0 mm
10:00 15.3 °F /  -9.3 °C 13.8 °F /  -10.1 °C 1015.1 in /  34371.3 hPa WSW 42.6 mph /  68.6 km/h 42.6 mph /  68.6 km/h 91 % 0.0 in /  0 mm
10:01 15.3 °F /  -9.3 °C 13.8 °F /  -10.1 °C 1015.1 in /  34371.3 hPa WSW 42.6 mph /  68.6 km/h 42.6 mph /  68.6 km/h 91 % 0.0 in /  0 mm
10:06 15.3 °F /  -9.3 °C 13.8 °F /  -10.1 °C 1015.1 in /  34371.3 hPa WSW 42.6 mph /  68.6 km/h 42.6 mph /  68.6 km/h 91 % 0.0 in /  0 mm
10:07 15.3 °F /  -9.3 °C 13.8 °F /  -10.1 °C 1015.5 in /  34384.8 hPa WSW 42.6 mph /  68.6 km/h 42.6 mph /  68.6 km/h 91 % 0.0 in /  0 mm
10:12 15.3 °F /  -9.3 °C 13.9 °F /  -10.1 °C 1015.5 in /  34384.8 hPa WSW 46.3 mph /  74.5 km/h 46.3 mph /  74.5 km/h 91 % 0.0 in /  0 mm
10:17 15.4 °F /  -9.2 °C 14.0 °F /  -10 °C 1015.5 in /  34384.8 hPa WSW 37.0 mph /  59.5 km/h 37.0 mph /  59.5 km/h 91 % 0.0 in /  0 mm
10:18 15.4 °F /  -9.2 °C 14.0 °F /  -10 °C 1015.5 in /  34384.8 hPa WSW 37.0 mph /  59.5 km/h 37.0 mph /  59.5 km/h 91 % 0.0 in /  0 mm
10:21 15.6 °F /  -9.1 °C 14.1 °F /  -9.9 °C 1015.8 in /  34395 hPa SW 33.3 mph /  53.6 km/h 33.3 mph /  53.6 km/h 91 % 0.0 in /  0 mm
10:24 15.7 °F /  -9.1 °C 14.1 °F /  -9.9 °C 1015.8 in /  34395 hPa WSW 27.8 mph /  44.7 km/h 27.8 mph /  44.7 km/h 90 % 0.0 in /  0 mm
10:27 15.7 °F /  -9.1 °C 14.1 °F /  -9.9 °C 1015.8 in /  34395 hPa SW 27.4 mph /  44.1 km/h 27.4 mph /  44.1 km/h 90 % 0.0 in /  0 mm
10:31 15.8 °F /  -9 °C 14.0 °F /  -10 °C 1015.8 in /  34395 hPa WSW 27.8 mph /  44.7 km/h 27.8 mph /  44.7 km/h 89 % 0.0 in /  0 mm
10:36 16.0 °F /  -8.9 °C 14.0 °F /  -10 °C 1016.1 in /  34405.1 hPa West 16.1 mph /  25.9 km/h 16.1 mph /  25.9 km/h 88 % 0.0 in /  0 mm
10:37 16.1 °F /  -8.8 °C 14.1 °F /  -9.9 °C 1016.1 in /  34405.1 hPa West 16.7 mph /  26.9 km/h 16.7 mph /  26.9 km/h 88 % 0.0 in /  0 mm
10:42 16.3 °F /  -8.7 °C 13.9 °F /  -10.1 °C 1016.1 in /  34405.1 hPa West 13.0 mph /  20.9 km/h 13.0 mph /  20.9 km/h 86 % 0.0 in /  0 mm
10:44 16.4 °F /  -8.7 °C 13.9 °F /  -10.1 °C 1016.1 in /  34405.1 hPa West 13.0 mph /  20.9 km/h 13.0 mph /  20.9 km/h 85 % 0.0 in /  0 mm
10:49 16.7 °F /  -8.5 °C 13.4 °F /  -10.3 °C 1016.5 in /  34418.7 hPa West 16.7 mph /  26.9 km/h 16.7 mph /  26.9 km/h 81 % 0.0 in /  0 mm
10:50 16.7 °F /  -8.5 °C 13.4 °F /  -10.3 °C 1016.5 in /  34418.7 hPa WSW 11.1 mph /  17.9 km/h 11.1 mph /  17.9 km/h 81 % 0.0 in /  0 mm
10:51 16.8 °F /  -8.4 °C 13.3 °F /  -10.4 °C 1016.5 in /  34418.7 hPa SW 12.9 mph /  20.8 km/h 12.9 mph /  20.8 km/h 80 % 0.0 in /  0 mm
10:56 17.1 °F /  -8.3 °C 13.0 °F /  -10.6 °C 1016.5 in /  34418.7 hPa WNW 5.6 mph /  9 km/h 5.6 mph /  9 km/h 77 % 0.0 in /  0 mm
10:57 17.1 °F /  -8.3 °C 13.0 °F /  -10.6 °C 1016.5 in /  34418.7 hPa WNW 5.6 mph /  9 km/h 5.6 mph /  9 km/h 77 % 0.0 in /  0 mm
11:02 17.2 °F /  -8.2 °C 12.6 °F /  -10.8 °C 1016.5 in /  34418.7 hPa NW 6.4 mph /  10.3 km/h 6.4 mph /  10.3 km/h 74 % 0.0 in /  0 mm
11:06 17.3 °F /  -8.2 °C 12.4 °F /  -10.9 °C 1016.5 in /  34418.7 hPa WNW 13.0 mph /  20.9 km/h 13.0 mph /  20.9 km/h 73 % 0.0 in /  0 mm
11:11 17.4 °F /  -8.1 °C 11.8 °F /  -11.2 °C 1016.5 in /  34418.7 hPa West 11.1 mph /  17.9 km/h 11.1 mph /  17.9 km/h 70 % 0.0 in /  0 mm
11:12 17.4 °F /  -8.1 °C 11.8 °F /  -11.2 °C 1016.8 in /  34428.8 hPa West 11.1 mph /  17.9 km/h 11.1 mph /  17.9 km/h 70 % 0.0 in /  0 mm
11:17 17.5 °F /  -8.1 °C 11.7 °F /  -11.3 °C 1016.8 in /  34428.8 hPa NW 13.0 mph /  20.9 km/h 13.0 mph /  20.9 km/h 69 % 0.0 in /  0 mm
11:22 17.6 °F /  -8 °C 11.6 °F /  -11.3 °C 1016.8 in /  34428.8 hPa WNW 14.8 mph /  23.8 km/h 14.8 mph /  23.8 km/h 68 % 0.0 in /  0 mm
11:27 17.6 °F /  -8 °C 11.6 °F /  -11.3 °C 1016.8 in /  34428.8 hPa SW 3.7 mph /  6 km/h   68 % 0.0 in /  0 mm
11:32 17.6 °F /  -8 °C 11.4 °F /  -11.4 °C 1016.8 in /  34428.8 hPa WSW 7.4 mph /  11.9 km/h 7.4 mph /  11.9 km/h 67 % 0.0 in /  0 mm
11:33 17.6 °F /  -8 °C 11.4 °F /  -11.4 °C 1016.8 in /  34428.8 hPa WSW 5.6 mph /  9 km/h 5.6 mph /  9 km/h 67 % 0.0 in /  0 mm
11:38 17.7 °F /  -7.9 °C 11.0 °F /  -11.7 °C 1016.8 in /  34428.8 hPa West 18.5 mph /  29.8 km/h 18.5 mph /  29.8 km/h 65 % 0.0 in /  0 mm
11:43 17.9 °F /  -7.8 °C 11.0 °F /  -11.7 °C 1016.8 in /  34428.8 hPa NW 18.5 mph /  29.8 km/h 18.5 mph /  29.8 km/h 64 % 0.0 in /  0 mm
11:44 17.9 °F /  -7.8 °C 11.0 °F /  -11.7 °C 1016.8 in /  34428.8 hPa WNW 20.9 mph /  33.6 km/h 20.9 mph /  33.6 km/h 64 % 0.0 in /  0 mm
11:49 18.1 °F /  -7.7 °C 10.9 °F /  -11.7 °C 1017.2 in /  34442.4 hPa West 16.1 mph /  25.9 km/h 16.1 mph /  25.9 km/h 63 % 0.0 in /  0 mm
11:50 18.1 °F /  -7.7 °C 10.7 °F /  -11.8 °C 1017.2 in /  34442.4 hPa WNW 22.2 mph /  35.7 km/h 22.2 mph /  35.7 km/h 62 % 0.0 in /  0 mm
11:54 18.3 °F /  -7.6 °C 10.6 °F /  -11.9 °C 1017.2 in /  34442.4 hPa NW 25.9 mph /  41.7 km/h 25.9 mph /  41.7 km/h 61 % 0.0 in /  0 mm
11:59 18.4 °F /  -7.6 °C 10.5 °F /  -11.9 °C 1016.8 in /  34428.8 hPa WNW 27.8 mph /  44.7 km/h 27.8 mph /  44.7 km/h 60 % 0.0 in /  0 mm
12:00 18.4 °F /  -7.6 °C 10.5 °F /  -11.9 °C 1016.8 in /  34428.8 hPa West 27.8 mph /  44.7 km/h 27.8 mph /  44.7 km/h 60 % 0.0 in /  0 mm
12:05 18.5 °F /  -7.5 °C 10.6 °F /  -11.9 °C 1016.8 in /  34428.8 hPa West 13.0 mph /  20.9 km/h 13.0 mph /  20.9 km/h 60 % 0.0 in /  0 mm
12:10 18.6 °F /  -7.4 °C 10.4 °F /  -12 °C 1016.8 in /  34428.8 hPa WNW 24.1 mph /  38.8 km/h 24.1 mph /  38.8 km/h 59 % 0.0 in /  0 mm
12:11 18.6 °F /  -7.4 °C 10.4 °F /  -12 °C 1016.8 in /  34428.8 hPa NNW 24.1 mph /  38.8 km/h 24.1 mph /  38.8 km/h 59 % 0.0 in /  0 mm
12:12 18.6 °F /  -7.4 °C 10.4 °F /  -12 °C 1016.8 in /  34428.8 hPa NW 16.7 mph /  26.9 km/h 16.7 mph /  26.9 km/h 59 % 0.0 in /  0 mm
12:16 18.7 °F /  -7.4 °C 10.5 °F /  -11.9 °C 1016.8 in /  34428.8 hPa WNW 16.7 mph /  26.9 km/h 16.7 mph /  26.9 km/h 59 % 0.0 in /  0 mm
12:21 18.7 °F /  -7.4 °C 10.5 °F /  -11.9 °C 1016.5 in /  34418.7 hPa NW 13.0 mph /  20.9 km/h 13.0 mph /  20.9 km/h 59 % 0.0 in /  0 mm
12:22 18.7 °F /  -7.4 °C 10.5 °F /  -11.9 °C 1016.5 in /  34418.7 hPa NW 13.0 mph /  20.9 km/h 13.0 mph /  20.9 km/h 59 % 0.0 in /  0 mm
12:27 18.8 °F /  -7.3 °C 10.6 °F /  -11.9 °C 1016.5 in /  34418.7 hPa WNW 13.0 mph /  20.9 km/h 13.0 mph /  20.9 km/h 59 % 0.0 in /  0 mm
12:29 18.8 °F /  -7.3 °C 10.4 °F /  -12 °C 1016.5 in /  34418.7 hPa NNW 9.3 mph /  15 km/h 9.3 mph /  15 km/h 58 % 0.0 in /  0 mm
12:31 18.9 °F /  -7.3 °C 10.4 °F /  -12 °C 1016.5 in /  34418.7 hPa NNW 11.3 mph /  18.2 km/h 11.3 mph /  18.2 km/h 58 % 0.0 in /  0 mm
12:36 18.9 °F /  -7.3 °C 10.5 °F /  -11.9 °C 1016.1 in /  34405.1 hPa WSW 20.9 mph /  33.6 km/h 20.9 mph /  33.6 km/h 58 % 0.0 in /  0 mm
12:41 18.9 °F /  -7.3 °C 10.5 °F /  -11.9 °C 1016.1 in /  34405.1 hPa NNE 9.7 mph /  15.6 km/h 9.7 mph /  15.6 km/h 58 % 0.0 in /  0 mm
12:46 18.9 °F /  -7.3 °C 10.4 °F /  -12 °C 1016.1 in /  34405.1 hPa West 9.3 mph /  15 km/h 9.3 mph /  15 km/h 58 % 0.0 in /  0 mm
12:48 18.8 °F /  -7.3 °C 10.4 °F /  -12 °C 1016.1 in /  34405.1 hPa West 9.3 mph /  15 km/h 9.3 mph /  15 km/h 58 % 0.0 in /  0 mm
12:53 18.8 °F /  -7.3 °C 11.3 °F /  -11.5 °C 1016.1 in /  34405.1 hPa WSW 16.7 mph /  26.9 km/h 16.7 mph /  26.9 km/h 62 % 0.0 in /  0 mm
12:58 18.5 °F /  -7.5 °C 11.3 °F /  -11.5 °C 1016.1 in /  34405.1 hPa West 13.0 mph /  20.9 km/h 13.0 mph /  20.9 km/h 63 % 0.0 in /  0 mm
12:59 18.4 °F /  -7.6 °C 11.2 °F /  -11.6 °C 1015.8 in /  34395 hPa West 11.1 mph /  17.9 km/h 11.1 mph /  17.9 km/h 63 % 0.0 in /  0 mm
13:05 18.3 °F /  -7.6 °C 11.2 °F /  -11.6 °C 1016.1 in /  34405.1 hPa West 9.3 mph /  15 km/h 9.3 mph /  15 km/h 63 % 0.0 in /  0 mm
13:06 18.3 °F /  -7.6 °C 11.2 °F /  -11.6 °C 1016.1 in /  34405.1 hPa WNW 7.4 mph /  11.9 km/h 8.2 mph /  13.2 km/h 63 % 0.0 in /  0 mm
13:10 18.3 °F /  -7.6 °C 10.2 °F /  -12.1 °C 1016.1 in /  34405.1 hPa SW 16.7 mph /  26.9 km/h 16.7 mph /  26.9 km/h 59 % 0.0 in /  0 mm
13:12 18.4 °F /  -7.6 °C 10.5 °F /  -11.9 °C 1016.1 in /  34405.1 hPa NW 13.0 mph /  20.9 km/h 13.0 mph /  20.9 km/h 60 % 0.0 in /  0 mm
13:17 18.6 °F /  -7.4 °C 9.6 °F /  -12.4 °C 1015.8 in /  34395 hPa West 24.1 mph /  38.8 km/h 24.1 mph /  38.8 km/h 56 % 0.0 in /  0 mm
13:18 18.6 °F /  -7.4 °C 9.7 °F /  -12.4 °C 1015.8 in /  34395 hPa West 27.8 mph /  44.7 km/h 27.8 mph /  44.7 km/h 56 % 0.0 in /  0 mm
13:21 18.7 °F /  -7.4 °C 10.0 °F /  -12.2 °C 1015.8 in /  34395 hPa West 20.4 mph /  32.8 km/h 20.4 mph /  32.8 km/h 57 % 0.0 in /  0 mm
13:24 18.6 °F /  -7.4 °C 10.7 °F /  -11.8 °C 1015.8 in /  34395 hPa WSW 33.8 mph /  54.4 km/h 33.8 mph /  54.4 km/h 60 % 0.0 in /  0 mm
13:29 18.1 °F /  -7.7 °C 10.9 °F /  -11.7 °C 1015.8 in /  34395 hPa West 22.2 mph /  35.7 km/h 22.2 mph /  35.7 km/h 63 % 0.0 in /  0 mm
13:34 17.9 °F /  -7.8 °C 11.0 °F /  -11.7 °C 1015.8 in /  34395 hPa West 29.6 mph /  47.6 km/h 29.6 mph /  47.6 km/h 64 % 0.0 in /  0 mm
13:37 17.9 °F /  -7.8 °C 10.3 °F /  -12.1 °C 1015.8 in /  34395 hPa West 22.5 mph /  36.2 km/h 22.5 mph /  36.2 km/h 61 % 0.0 in /  0 mm
13:41 18.1 °F /  -7.7 °C 10.4 °F /  -12 °C 1015.8 in /  34395 hPa WNW 16.7 mph /  26.9 km/h 16.7 mph /  26.9 km/h 61 % 0.0 in /  0 mm
13:46 18.2 °F /  -7.7 °C 10.5 °F /  -11.9 °C 1015.5 in /  34384.8 hPa West 37.0 mph /  59.5 km/h 37.0 mph /  59.5 km/h 61 % 0.0 in /  0 mm
13:47 18.2 °F /  -7.7 °C 10.5 °F /  -11.9 °C 1015.5 in /  34384.8 hPa West 37.0 mph /  59.5 km/h 37.0 mph /  59.5 km/h 61 % 0.0 in /  0 mm
13:48 18.2 °F /  -7.7 °C 10.5 °F /  -11.9 °C 1015.5 in /  34384.8 hPa WSW 37.0 mph /  59.5 km/h 37.0 mph /  59.5 km/h 61 % 0.0 in /  0 mm
13:52 18.2 °F /  -7.7 °C 10.1 °F /  -12.2 °C 1015.5 in /  34384.8 hPa West 22.5 mph /  36.2 km/h 22.5 mph /  36.2 km/h 59 % 0.0 in /  0 mm
13:54 18.3 °F /  -7.6 °C 10.4 °F /  -12 °C 1015.5 in /  34384.8 hPa WSW 24.1 mph /  38.8 km/h 24.1 mph /  38.8 km/h 60 % 0.0 in /  0 mm
13:58 18.3 °F /  -7.6 °C 10.4 °F /  -12 °C 1015.5 in /  34384.8 hPa WNW 24.1 mph /  38.8 km/h 24.1 mph /  38.8 km/h 60 % 0.0 in /  0 mm
14:00 18.3 °F /  -7.6 °C 10.1 °F /  -12.2 °C 1015.5 in /  34384.8 hPa West 25.9 mph /  41.7 km/h 25.9 mph /  41.7 km/h 59 % 0.0 in /  0 mm
14:04 18.2 °F /  -7.7 °C 10.1 °F /  -12.2 °C 1015.5 in /  34384.8 hPa West 31.5 mph /  50.7 km/h 31.5 mph /  50.7 km/h 59 % 0.0 in /  0 mm
14:05 18.2 °F /  -7.7 °C 10.0 °F /  -12.2 °C 1015.1 in /  34371.3 hPa West 24.1 mph /  38.8 km/h 24.1 mph /  38.8 km/h 59 % 0.0 in /  0 mm
14:09 18.1 °F /  -7.7 °C 9.9 °F /  -12.3 °C 1015.5 in /  34384.8 hPa West 22.2 mph /  35.7 km/h 22.2 mph /  35.7 km/h 59 % 0.0 in /  0 mm
14:11 18.1 °F /  -7.7 °C 9.7 °F /  -12.4 °C 1015.1 in /  34371.3 hPa WSW 35.2 mph /  56.6 km/h 35.2 mph /  56.6 km/h 58 % 0.0 in /  0 mm
14:16 18.1 °F /  -7.7 °C 9.9 °F /  -12.3 °C 1015.5 in /  34384.8 hPa West 32.2 mph /  51.8 km/h 32.2 mph /  51.8 km/h 59 % 0.0 in /  0 mm
14:17 18.1 °F /  -7.7 °C 9.9 °F /  -12.3 °C 1015.5 in /  34384.8 hPa WSW 31.5 mph /  50.7 km/h 31.5 mph /  50.7 km/h 59 % 0.0 in /  0 mm
14:20 18.1 °F /  -7.7 °C 9.9 °F /  -12.3 °C 1015.1 in /  34371.3 hPa West 24.1 mph /  38.8 km/h 24.1 mph /  38.8 km/h 59 % 0.0 in /  0 mm
14:22 18.0 °F /  -7.8 °C 9.9 °F /  -12.3 °C 1015.1 in /  34371.3 hPa West 18.5 mph /  29.8 km/h 18.5 mph /  29.8 km/h 59 % 0.0 in /  0 mm
14:27 18.1 °F /  -7.7 °C 9.9 °F /  -12.3 °C 1015.1 in /  34371.3 hPa West 31.5 mph /  50.7 km/h 31.5 mph /  50.7 km/h 59 % 0.0 in /  0 mm
14:29 18.1 °F /  -7.7 °C 9.7 °F /  -12.4 °C 1015.5 in /  34384.8 hPa WNW 31.5 mph /  50.7 km/h 31.5 mph /  50.7 km/h 58 % 0.0 in /  0 mm
14:32 18.1 °F /  -7.7 °C 9.9 °F /  -12.3 °C 1015.5 in /  34384.8 hPa WSW 29.6 mph /  47.6 km/h 29.6 mph /  47.6 km/h 59 % 0.0 in /  0 mm
14:35 18.0 °F /  -7.8 °C 9.9 °F /  -12.3 °C 1015.1 in /  34371.3 hPa West 31.5 mph /  50.7 km/h 31.5 mph /  50.7 km/h 59 % 0.0 in /  0 mm
14:37 18.0 °F /  -7.8 °C 10.1 °F /  -12.2 °C 1015.1 in /  34371.3 hPa WSW 31.5 mph /  50.7 km/h 31.5 mph /  50.7 km/h 60 % 0.0 in /  0 mm
14:40 17.9 °F /  -7.8 °C 9.8 °F /  -12.3 °C 1015.5 in /  34384.8 hPa WNW 31.5 mph /  50.7 km/h 31.5 mph /  50.7 km/h 59 % 0.0 in /  0 mm
14:45 17.9 °F /  -7.8 °C 10.0 °F /  -12.2 °C 1015.5 in /  34384.8 hPa WSW 27.8 mph /  44.7 km/h 27.8 mph /  44.7 km/h 60 % 0.0 in /  0 mm
14:49 17.9 °F /  -7.8 °C 10.0 °F /  -12.2 °C 1015.5 in /  34384.8 hPa West 16.7 mph /  26.9 km/h 16.7 mph /  26.9 km/h 60 % 0.0 in /  0 mm
14:51 17.8 °F /  -7.9 °C 10.2 °F /  -12.1 °C 1015.5 in /  34384.8 hPa WNW 24.1 mph /  38.8 km/h 24.1 mph /  38.8 km/h 61 % 0.0 in /  0 mm
14:54 17.8 °F /  -7.9 °C 10.2 °F /  -12.1 °C 1015.5 in /  34384.8 hPa West 25.9 mph /  41.7 km/h 25.9 mph /  41.7 km/h 61 % 0.0 in /  0 mm
14:58 17.7 °F /  -7.9 °C 10.1 °F /  -12.2 °C 1015.5 in /  34384.8 hPa WSW 29.6 mph /  47.6 km/h 29.6 mph /  47.6 km/h 61 % 0.0 in /  0 mm
15:01 17.7 °F /  -7.9 °C 10.1 °F /  -12.2 °C 1015.1 in /  34371.3 hPa West 27.8 mph /  44.7 km/h 27.8 mph /  44.7 km/h 61 % 0.0 in /  0 mm
15:06 17.6 °F /  -8 °C 10.2 °F /  -12.1 °C 1015.1 in /  34371.3 hPa WNW 29.6 mph /  47.6 km/h 29.6 mph /  47.6 km/h 62 % 0.0 in /  0 mm
15:07 17.6 °F /  -8 °C 10.0 °F /  -12.2 °C 1015.1 in /  34371.3 hPa WNW 29.6 mph /  47.6 km/h 29.6 mph /  47.6 km/h 61 % 0.0 in /  0 mm
15:12 17.6 °F /  -8 °C 10.0 °F /  -12.2 °C 1015.5 in /  34384.8 hPa West 25.9 mph /  41.7 km/h 25.9 mph /  41.7 km/h 61 % 0.0 in /  0 mm
15:17 17.6 °F /  -8 °C 10.2 °F /  -12.1 °C 1015.5 in /  34384.8 hPa WNW 14.8 mph /  23.8 km/h 14.8 mph /  23.8 km/h 62 % 0.0 in /  0 mm
15:18 17.6 °F /  -8 °C 10.2 °F /  -12.1 °C 1015.5 in /  34384.8 hPa NW 14.8 mph /  23.8 km/h 14.8 mph /  23.8 km/h 62 % 0.0 in /  0 mm
15:23 17.5 °F /  -8.1 °C 10.1 °F /  -12.2 °C 1015.5 in /  34384.8 hPa West 17.7 mph /  28.5 km/h 17.7 mph /  28.5 km/h 62 % 0.0 in /  0 mm
15:26 17.5 °F /  -8.1 °C 10.1 °F /  -12.2 °C 1015.5 in /  34384.8 hPa West 24.1 mph /  38.8 km/h 24.1 mph /  38.8 km/h 62 % 0.0 in /  0 mm
15:29 17.6 °F /  -8 °C 10.2 °F /  -12.1 °C 1015.5 in /  34384.8 hPa West 20.4 mph /  32.8 km/h 20.4 mph /  32.8 km/h 62 % 0.0 in /  0 mm
15:31 17.5 °F /  -8.1 °C 10.4 °F /  -12 °C 1015.5 in /  34384.8 hPa West 16.7 mph /  26.9 km/h 16.7 mph /  26.9 km/h 63 % 0.0 in /  0 mm
15:36 17.5 °F /  -8.1 °C 10.4 °F /  -12 °C 1015.1 in /  34371.3 hPa West 24.1 mph /  38.8 km/h 24.1 mph /  38.8 km/h 63 % 0.0 in /  0 mm
15:41 17.5 °F /  -8.1 °C 10.4 °F /  -12 °C 1015.1 in /  34371.3 hPa West 16.7 mph /  26.9 km/h 16.7 mph /  26.9 km/h 63 % 0.0 in /  0 mm
15:44 17.5 °F /  -8.1 °C 10.4 °F /  -12 °C 1015.1 in /  34371.3 hPa WSW 20.4 mph /  32.8 km/h 20.4 mph /  32.8 km/h 63 % 0.0 in /  0 mm
15:45 17.5 °F /  -8.1 °C 10.4 °F /  -12 °C 1015.1 in /  34371.3 hPa West 27.8 mph /  44.7 km/h 27.8 mph /  44.7 km/h 63 % 0.0 in /  0 mm
15:50 17.4 °F /  -8.1 °C 10.6 °F /  -11.9 °C 1015.1 in /  34371.3 hPa West 24.1 mph /  38.8 km/h 24.1 mph /  38.8 km/h 64 % 0.0 in /  0 mm
15:53 17.4 °F /  -8.1 °C 10.7 °F /  -11.8 °C 1015.1 in /  34371.3 hPa WSW 29.6 mph /  47.6 km/h 29.6 mph /  47.6 km/h 65 % 0.0 in /  0 mm
15:56 17.3 °F /  -8.2 °C 10.9 °F /  -11.7 °C 1015.1 in /  34371.3 hPa WSW 31.5 mph /  50.7 km/h 31.5 mph /  50.7 km/h 66 % 0.0 in /  0 mm
16:01 17.1 °F /  -8.3 °C 10.9 °F /  -11.7 °C 1015.1 in /  34371.3 hPa SW 42.6 mph /  68.6 km/h 42.6 mph /  68.6 km/h 67 % 0.0 in /  0 mm
16:02 17.0 °F /  -8.3 °C 10.8 °F /  -11.8 °C 1015.1 in /  34371.3 hPa West 38.9 mph /  62.6 km/h 38.9 mph /  62.6 km/h 67 % 0.0 in /  0 mm
16:07 16.9 °F /  -8.4 °C 10.9 °F /  -11.7 °C 1015.1 in /  34371.3 hPa West 31.5 mph /  50.7 km/h 31.5 mph /  50.7 km/h 68 % 0.0 in /  0 mm
16:12 16.9 °F /  -8.4 °C 11.0 °F /  -11.7 °C 1015.1 in /  34371.3 hPa WSW 35.2 mph /  56.6 km/h 35.2 mph /  56.6 km/h 68 % 0.0 in /  0 mm
16:13 16.9 °F /  -8.4 °C 11.0 °F /  -11.7 °C 1015.1 in /  34371.3 hPa West 35.2 mph /  56.6 km/h 35.2 mph /  56.6 km/h 68 % 0.0 in /  0 mm
16:15 16.9 °F /  -8.4 °C 10.9 °F /  -11.7 °C 1015.1 in /  34371.3 hPa West 38.9 mph /  62.6 km/h 38.9 mph /  62.6 km/h 68 % 0.0 in /  0 mm
16:19 16.8 °F /  -8.4 °C 11.1 °F /  -11.6 °C 1015.1 in /  34371.3 hPa WSW 35.2 mph /  56.6 km/h 35.2 mph /  56.6 km/h 69 % 0.0 in /  0 mm
16:21 16.7 °F /  -8.5 °C 11.0 °F /  -11.7 °C 1015.1 in /  34371.3 hPa West 29.6 mph /  47.6 km/h 29.6 mph /  47.6 km/h 69 % 0.0 in /  0 mm
16:24 16.7 °F /  -8.5 °C 11.2 °F /  -11.6 °C 1015.1 in /  34371.3 hPa West 40.7 mph /  65.5 km/h 40.7 mph /  65.5 km/h 70 % 0.0 in /  0 mm
16:29 16.6 °F /  -8.6 °C 11.3 °F /  -11.5 °C 1015.1 in /  34371.3 hPa West 35.2 mph /  56.6 km/h 35.2 mph /  56.6 km/h 71 % 0.0 in /  0 mm
16:32 16.4 °F /  -8.7 °C 11.2 °F /  -11.6 °C 1015.1 in /  34371.3 hPa West 46.3 mph /  74.5 km/h 46.3 mph /  74.5 km/h 71 % 0.0 in /  0 mm
16:35 16.4 °F /  -8.7 °C 11.3 °F /  -11.5 °C 1015.1 in /  34371.3 hPa WNW 42.6 mph /  68.6 km/h 42.6 mph /  68.6 km/h 72 % 0.0 in /  0 mm
16:38 16.4 °F /  -8.7 °C 11.2 °F /  -11.6 °C 1015.1 in /  34371.3 hPa West 40.7 mph /  65.5 km/h 40.7 mph /  65.5 km/h 71 % 0.0 in /  0 mm
16:42 16.5 °F /  -8.6 °C 11.0 °F /  -11.7 °C 1015.1 in /  34371.3 hPa West 31.5 mph /  50.7 km/h 31.5 mph /  50.7 km/h 70 % 0.0 in /  0 mm
16:46 16.5 °F /  -8.6 °C 11.0 °F /  -11.7 °C 1015.1 in /  34371.3 hPa West 24.1 mph /  38.8 km/h 24.1 mph /  38.8 km/h 70 % 0.0 in /  0 mm
16:49 16.6 °F /  -8.6 °C 10.9 °F /  -11.7 °C 1015.1 in /  34371.3 hPa WNW 29.6 mph /  47.6 km/h 29.6 mph /  47.6 km/h 69 % 0.0 in /  0 mm
16:51 16.7 °F /  -8.5 °C 10.8 °F /  -11.8 °C 1015.1 in /  34371.3 hPa West 31.5 mph /  50.7 km/h 31.5 mph /  50.7 km/h 68 % 0.0 in /  0 mm
16:54 16.9 °F /  -8.4 °C 10.5 °F /  -11.9 °C 1015.1 in /  34371.3 hPa WSW 29.6 mph /  47.6 km/h 29.6 mph /  47.6 km/h 66 % 0.0 in /  0 mm
16:59 16.8 °F /  -8.4 °C 10.8 °F /  -11.8 °C 1015.5 in /  34384.8 hPa West 37.0 mph /  59.5 km/h 37.0 mph /  59.5 km/h 68 % 0.0 in /  0 mm
17:01 16.8 °F /  -8.4 °C 10.8 °F /  -11.8 °C 1015.1 in /  34371.3 hPa West 37.0 mph /  59.5 km/h 37.0 mph /  59.5 km/h 68 % 0.0 in /  0 mm
17:03 16.7 °F /  -8.5 °C 10.8 °F /  -11.8 °C 1015.5 in /  34384.8 hPa WNW 35.2 mph /  56.6 km/h 35.2 mph /  56.6 km/h 68 % 0.0 in /  0 mm
17:06 16.7 °F /  -8.5 °C 10.6 °F /  -11.9 °C 1015.5 in /  34384.8 hPa West 27.8 mph /  44.7 km/h 27.8 mph /  44.7 km/h 67 % 0.0 in /  0 mm
17:08 16.8 °F /  -8.4 °C 10.6 °F /  -11.9 °C 1015.1 in /  34371.3 hPa NNW 25.7 mph /  41.4 km/h 25.7 mph /  41.4 km/h 67 % 0.0 in /  0 mm
17:11 16.8 °F /  -8.4 °C 10.4 °F /  -12 °C 1015.5 in /  34384.8 hPa WNW 24.1 mph /  38.8 km/h 24.1 mph /  38.8 km/h 66 % 0.0 in /  0 mm
17:14 16.9 °F /  -8.4 °C 10.5 °F /  -11.9 °C 1015.5 in /  34384.8 hPa WNW 24.1 mph /  38.8 km/h 24.1 mph /  38.8 km/h 66 % 0.0 in /  0 mm
17:17 16.9 °F /  -8.4 °C 10.3 °F /  -12.1 °C 1015.5 in /  34384.8 hPa WSW 27.8 mph /  44.7 km/h 27.8 mph /  44.7 km/h 65 % 0.0 in /  0 mm
17:20 16.9 °F /  -8.4 °C 10.1 °F /  -12.2 °C 1015.1 in /  34371.3 hPa WSW 29.6 mph /  47.6 km/h 29.6 mph /  47.6 km/h 64 % 0.0 in /  0 mm
17:23 17.1 °F /  -8.3 °C 10.2 °F /  -12.1 °C 1015.5 in /  34384.8 hPa West 27.8 mph /  44.7 km/h 27.8 mph /  44.7 km/h 64 % 0.0 in /  0 mm
17:26 17.1 °F /  -8.3 °C 10.0 °F /  -12.2 °C 1015.5 in /  34384.8 hPa WNW 22.2 mph /  35.7 km/h 22.2 mph /  35.7 km/h 63 % 0.0 in /  0 mm
17:31 17.2 °F /  -8.2 °C 10.1 °F /  -12.2 °C 1015.5 in /  34384.8 hPa West 24.1 mph /  38.8 km/h 24.1 mph /  38.8 km/h 63 % 0.0 in /  0 mm
17:36 17.2 °F /  -8.2 °C 10.1 °F /  -12.2 °C 1015.5 in /  34384.8 hPa West 20.9 mph /  33.6 km/h 20.9 mph /  33.6 km/h 63 % 0.0 in /  0 mm
17:38 17.2 °F /  -8.2 °C 10.1 °F /  -12.2 °C 1015.5 in /  34384.8 hPa West 31.5 mph /  50.7 km/h 31.5 mph /  50.7 km/h 63 % 0.0 in /  0 mm
17:42 17.2 °F /  -8.2 °C 10.1 °F /  -12.2 °C 1015.8 in /  34395 hPa WNW 29.6 mph /  47.6 km/h 29.6 mph /  47.6 km/h 63 % 0.0 in /  0 mm
17:47 17.2 °F /  -8.2 °C 10.1 °F /  -12.2 °C 1015.8 in /  34395 hPa WNW 16.7 mph /  26.9 km/h 16.7 mph /  26.9 km/h 63 % 0.0 in /  0 mm
17:52 17.2 °F /  -8.2 °C 10.1 °F /  -12.2 °C 1015.8 in /  34395 hPa West 18.5 mph /  29.8 km/h 18.5 mph /  29.8 km/h 63 % 0.0 in /  0 mm
17:55 17.2 °F /  -8.2 °C 10.1 °F /  -12.2 °C 1015.8 in /  34395 hPa West 25.9 mph /  41.7 km/h 25.9 mph /  41.7 km/h 63 % 0.0 in /  0 mm
17:58 17.2 °F /  -8.2 °C 10.3 °F /  -12.1 °C 1015.8 in /  34395 hPa West 25.9 mph /  41.7 km/h 25.9 mph /  41.7 km/h 64 % 0.0 in /  0 mm
18:00 17.2 °F /  -8.2 °C 10.1 °F /  -12.2 °C 1015.8 in /  34395 hPa West 27.8 mph /  44.7 km/h 27.8 mph /  44.7 km/h 63 % 0.0 in /  0 mm
18:01 17.2 °F /  -8.2 °C 10.1 °F /  -12.2 °C 1015.8 in /  34395 hPa WSW 27.8 mph /  44.7 km/h 27.8 mph /  44.7 km/h 63 % 0.0 in /  0 mm
18:06 17.2 °F /  -8.2 °C 10.3 °F /  -12.1 °C 1015.8 in /  34395 hPa West 29.6 mph /  47.6 km/h 29.6 mph /  47.6 km/h 64 % 0.0 in /  0 mm
18:11 17.2 °F /  -8.2 °C 10.1 °F /  -12.2 °C 1015.8 in /  34395 hPa West 22.5 mph /  36.2 km/h 22.5 mph /  36.2 km/h 63 % 0.0 in /  0 mm
18:16 17.2 °F /  -8.2 °C 10.1 °F /  -12.2 °C 1015.8 in /  34395 hPa WNW 24.1 mph /  38.8 km/h 24.1 mph /  38.8 km/h 63 % 0.0 in /  0 mm
18:17 17.2 °F /  -8.2 °C 10.1 °F /  -12.2 °C 1015.8 in /  34395 hPa WNW 27.8 mph /  44.7 km/h 27.8 mph /  44.7 km/h 63 % 0.0 in /  0 mm
18:22 17.2 °F /  -8.2 °C 10.1 °F /  -12.2 °C 1015.8 in /  34395 hPa NW 16.7 mph /  26.9 km/h 16.7 mph /  26.9 km/h 63 % 0.0 in /  0 mm
18:23 17.2 °F /  -8.2 °C 10.1 °F /  -12.2 °C 1015.8 in /  34395 hPa WNW 16.7 mph /  26.9 km/h 16.7 mph /  26.9 km/h 63 % 0.0 in /  0 mm
18:28 17.2 °F /  -8.2 °C 9.8 °F /  -12.3 °C 1015.8 in /  34395 hPa WNW 18.5 mph /  29.8 km/h 18.5 mph /  29.8 km/h 62 % 0.0 in /  0 mm
18:30 17.2 °F /  -8.2 °C 9.6 °F /  -12.4 °C 1015.8 in /  34395 hPa West 18.5 mph /  29.8 km/h 18.5 mph /  29.8 km/h 61 % 0.0 in /  0 mm
18:32 17.2 °F /  -8.2 °C 9.9 °F /  -12.3 °C 1015.8 in /  34395 hPa NNW 43.4 mph /  69.8 km/h 43.4 mph /  69.8 km/h 62 % 0.0 in /  0 mm
18:36 17.4 °F /  -8.1 °C 9.6 °F /  -12.4 °C 1015.8 in /  34395 hPa NW 24.1 mph /  38.8 km/h 24.1 mph /  38.8 km/h 60 % 0.0 in /  0 mm
18:41 17.5 °F /  -8.1 °C 9.9 °F /  -12.3 °C 1015.8 in /  34395 hPa West 27.8 mph /  44.7 km/h 27.8 mph /  44.7 km/h 61 % 0.0 in /  0 mm
18:42 17.4 °F /  -8.1 °C 9.8 °F /  -12.3 °C 1015.8 in /  34395 hPa West 32.2 mph /  51.8 km/h 32.2 mph /  51.8 km/h 61 % 0.0 in /  0 mm
18:47 17.6 °F /  -8 °C 9.2 °F /  -12.7 °C 1015.8 in /  34395 hPa West 27.8 mph /  44.7 km/h 27.8 mph /  44.7 km/h 58 % 0.0 in /  0 mm
18:49 17.6 °F /  -8 °C 9.4 °F /  -12.6 °C 1015.8 in /  34395 hPa WNW 27.8 mph /  44.7 km/h 27.8 mph /  44.7 km/h 59 % 0.0 in /  0 mm
18:52 17.6 °F /  -8 °C 9.4 °F /  -12.6 °C 1016.1 in /  34405.1 hPa West 18.5 mph /  29.8 km/h 18.5 mph /  29.8 km/h 59 % 0.0 in /  0 mm
18:58 17.7 °F /  -7.9 °C 9.1 °F /  -12.7 °C 1016.1 in /  34405.1 hPa West 42.6 mph /  68.6 km/h 42.6 mph /  68.6 km/h 57 % 0.0 in /  0 mm
19:00 17.7 °F /  -7.9 °C 9.3 °F /  -12.6 °C 1016.1 in /  34405.1 hPa WNW 19.3 mph /  31.1 km/h 43.4 mph /  69.8 km/h 58 % 0.0 in /  0 mm
19:03 17.7 °F /  -7.9 °C 9.6 °F /  -12.4 °C 1016.1 in /  34405.1 hPa West 25.9 mph /  41.7 km/h 25.9 mph /  41.7 km/h 59 % 0.0 in /  0 mm
19:08 17.6 °F /  -8 °C 9.7 °F /  -12.4 °C 1016.1 in /  34405.1 hPa WNW 18.5 mph /  29.8 km/h 18.5 mph /  29.8 km/h 60 % 0.0 in /  0 mm
19:13 17.4 °F /  -8.1 °C 9.6 °F /  -12.4 °C 1016.1 in /  34405.1 hPa West 33.3 mph /  53.6 km/h 33.3 mph /  53.6 km/h 60 % 0.0 in /  0 mm
19:14 17.3 °F /  -8.2 °C 9.5 °F /  -12.5 °C 1016.1 in /  34405.1 hPa WNW 24.1 mph /  38.8 km/h 24.1 mph /  38.8 km/h 60 % 0.0 in /  0 mm
19:18 17.3 °F /  -8.2 °C 9.7 °F /  -12.4 °C 1016.1 in /  34405.1 hPa West 22.5 mph /  36.2 km/h 22.5 mph /  36.2 km/h 61 % 0.0 in /  0 mm
19:20 17.2 °F /  -8.2 °C 9.9 °F /  -12.3 °C 1016.5 in /  34418.7 hPa West 24.1 mph /  38.8 km/h 24.1 mph /  38.8 km/h 62 % 0.0 in /  0 mm
19:23 17.2 °F /  -8.2 °C 9.6 °F /  -12.4 °C 1016.5 in /  34418.7 hPa NW 31.5 mph /  50.7 km/h 31.5 mph /  50.7 km/h 61 % 0.0 in /  0 mm
19:26 17.2 °F /  -8.2 °C 9.9 °F /  -12.3 °C 1016.5 in /  34418.7 hPa West 22.2 mph /  35.7 km/h 22.2 mph /  35.7 km/h 62 % 0.0 in /  0 mm
19:28 17.2 °F /  -8.2 °C 9.9 °F /  -12.3 °C 1016.5 in /  34418.7 hPa West 31.5 mph /  50.7 km/h 31.5 mph /  50.7 km/h 62 % 0.0 in /  0 mm
19:31 17.3 °F /  -8.2 °C 9.4 °F /  -12.6 °C 1016.5 in /  34418.7 hPa West 27.8 mph /  44.7 km/h 27.8 mph /  44.7 km/h 60 % 0.0 in /  0 mm
19:34 17.3 °F /  -8.2 °C 9.5 °F /  -12.5 °C 1016.5 in /  34418.7 hPa NW 22.5 mph /  36.2 km/h 22.5 mph /  36.2 km/h 60 % 0.0 in /  0 mm
19:39 17.4 °F /  -8.1 °C 9.6 °F /  -12.4 °C 1016.5 in /  34418.7 hPa WNW 18.5 mph /  29.8 km/h 18.5 mph /  29.8 km/h 60 % 0.0 in /  0 mm
19:43 17.3 °F /  -8.2 °C 9.7 °F /  -12.4 °C 1016.5 in /  34418.7 hPa WNW 24.1 mph /  38.8 km/h 24.1 mph /  38.8 km/h 61 % 0.0 in /  0 mm
19:48 17.3 °F /  -8.2 °C 9.7 °F /  -12.4 °C 1016.5 in /  34418.7 hPa West 22.5 mph /  36.2 km/h 22.5 mph /  36.2 km/h 61 % 0.0 in /  0 mm
19:50 17.3 °F /  -8.2 °C 10.0 °F /  -12.2 °C 1016.5 in /  34418.7 hPa NW 20.4 mph /  32.8 km/h 20.4 mph /  32.8 km/h 62 % 0.0 in /  0 mm
19:52 17.3 °F /  -8.2 °C 9.7 °F /  -12.4 °C 1016.8 in /  34428.8 hPa West 24.1 mph /  38.8 km/h 24.1 mph /  38.8 km/h 61 % 0.0 in /  0 mm
19:55 17.3 °F /  -8.2 °C 9.7 °F /  -12.4 °C 1016.8 in /  34428.8 hPa WNW 24.1 mph /  38.8 km/h 24.1 mph /  38.8 km/h 61 % 0.0 in /  0 mm
19:57 17.3 °F /  -8.2 °C 9.7 °F /  -12.4 °C 1016.8 in /  34428.8 hPa WNW 24.1 mph /  38.8 km/h 24.1 mph /  38.8 km/h 61 % 0.0 in /  0 mm
20:01 17.3 °F /  -8.2 °C 9.9 °F /  -12.3 °C 1016.8 in /  34428.8 hPa West 18.5 mph /  29.8 km/h 18.5 mph /  29.8 km/h 62 % 0.0 in /  0 mm
20:06 17.2 °F /  -8.2 °C 9.9 °F /  -12.3 °C 1016.8 in /  34428.8 hPa West 31.5 mph /  50.7 km/h 31.5 mph /  50.7 km/h 62 % 0.0 in /  0 mm
20:11 17.4 °F /  -8.1 °C 9.8 °F /  -12.3 °C 1016.8 in /  34428.8 hPa WNW 18.5 mph /  29.8 km/h 18.5 mph /  29.8 km/h 61 % 0.0 in /  0 mm
20:12 17.4 °F /  -8.1 °C 9.8 °F /  -12.3 °C 1016.8 in /  34428.8 hPa West 18.5 mph /  29.8 km/h 18.5 mph /  29.8 km/h 61 % 0.0 in /  0 mm
20:17 17.3 °F /  -8.2 °C 9.9 °F /  -12.3 °C 1016.8 in /  34428.8 hPa West 18.5 mph /  29.8 km/h 18.5 mph /  29.8 km/h 62 % 0.0 in /  0 mm
20:22 17.2 °F /  -8.2 °C 9.8 °F /  -12.3 °C 1016.8 in /  34428.8 hPa WNW 29.6 mph /  47.6 km/h 29.6 mph /  47.6 km/h 62 % 0.0 in /  0 mm
20:26 17.2 °F /  -8.2 °C 9.8 °F /  -12.3 °C 1016.8 in /  34428.8 hPa NW 25.9 mph /  41.7 km/h 25.9 mph /  41.7 km/h 62 % 0.0 in /  0 mm
20:28 17.2 °F /  -8.2 °C 9.8 °F /  -12.3 °C 1016.8 in /  34428.8 hPa WNW 29.0 mph /  46.7 km/h 29.0 mph /  46.7 km/h 62 % 0.0 in /  0 mm
20:33 17.2 °F /  -8.2 °C 10.1 °F /  -12.2 °C 1016.8 in /  34428.8 hPa NW 20.4 mph /  32.8 km/h 20.4 mph /  32.8 km/h 63 % 0.0 in /  0 mm
20:34 17.2 °F /  -8.2 °C 10.1 °F /  -12.2 °C 1016.8 in /  34428.8 hPa WNW 20.9 mph /  33.6 km/h 20.9 mph /  33.6 km/h 63 % 0.0 in /  0 mm
20:35 17.2 °F /  -8.2 °C 10.1 °F /  -12.2 °C 1016.8 in /  34428.8 hPa WNW 14.5 mph /  23.3 km/h 20.9 mph /  33.6 km/h 63 % 0.0 in /  0 mm
20:40 17.1 °F /  -8.3 °C 9.9 °F /  -12.3 °C 1016.8 in /  34428.8 hPa WNW 20.4 mph /  32.8 km/h 20.4 mph /  32.8 km/h 63 % 0.0 in /  0 mm
20:42 17.1 °F /  -8.3 °C 10.0 °F /  -12.2 °C 1016.8 in /  34428.8 hPa NW 24.1 mph /  38.8 km/h 24.1 mph /  38.8 km/h 63 % 0.0 in /  0 mm
20:45 17.1 °F /  -8.3 °C 9.8 °F /  -12.3 °C 1016.8 in /  34428.8 hPa NW 20.9 mph /  33.6 km/h 33.8 mph /  54.4 km/h 62 % 0.0 in /  0 mm
20:49 17.1 °F /  -8.3 °C 10.0 °F /  -12.2 °C 1017.2 in /  34442.4 hPa West 19.3 mph /  31.1 km/h 19.3 mph /  31.1 km/h 63 % 0.0 in /  0 mm
20:50 17.1 °F /  -8.3 °C 9.8 °F /  -12.3 °C 1017.2 in /  34442.4 hPa NW 29.6 mph /  47.6 km/h 29.6 mph /  47.6 km/h 62 % 0.0 in /  0 mm
20:55 17.3 °F /  -8.2 °C 9.4 °F /  -12.6 °C 1017.2 in /  34442.4 hPa NW 25.9 mph /  41.7 km/h 25.9 mph /  41.7 km/h 60 % 0.0 in /  0 mm
20:56 17.3 °F /  -8.2 °C 9.4 °F /  -12.6 °C 1017.2 in /  34442.4 hPa WNW 25.9 mph /  41.7 km/h 25.9 mph /  41.7 km/h 60 % 0.0 in /  0 mm
20:59 17.4 °F /  -8.1 °C 9.6 °F /  -12.4 °C 1017.2 in /  34442.4 hPa NW 24.1 mph /  38.8 km/h 24.1 mph /  38.8 km/h 60 % 0.0 in /  0 mm
21:01 17.4 °F /  -8.1 °C 9.6 °F /  -12.4 °C 1017.2 in /  34442.4 hPa WNW 27.8 mph /  44.7 km/h 27.8 mph /  44.7 km/h 60 % 0.0 in /  0 mm
21:06 17.5 °F /  -8.1 °C 9.4 °F /  -12.6 °C 1017.2 in /  34442.4 hPa NW 27.8 mph /  44.7 km/h 27.8 mph /  44.7 km/h 59 % 0.0 in /  0 mm
21:11 17.6 °F /  -8 °C 9.4 °F /  -12.6 °C 1016.8 in /  34428.8 hPa WNW 31.5 mph /  50.7 km/h 31.5 mph /  50.7 km/h 59 % 0.0 in /  0 mm
21:12 17.6 °F /  -8 °C 9.4 °F /  -12.6 °C 1016.8 in /  34428.8 hPa WNW 33.3 mph /  53.6 km/h 33.3 mph /  53.6 km/h 59 % 0.0 in /  0 mm
21:17 17.5 °F /  -8.1 °C 9.4 °F /  -12.6 °C 1017.2 in /  34442.4 hPa NW 31.5 mph /  50.7 km/h 31.5 mph /  50.7 km/h 59 % 0.0 in /  0 mm
21:21 17.5 °F /  -8.1 °C 9.2 °F /  -12.7 °C 1016.8 in /  34428.8 hPa NW 38.9 mph /  62.6 km/h 38.9 mph /  62.6 km/h 58 % 0.0 in /  0 mm
21:23 17.6 °F /  -8 °C 9.2 °F /  -12.7 °C 1016.8 in /  34428.8 hPa NW 38.6 mph /  62.1 km/h 38.6 mph /  62.1 km/h 58 % 0.0 in /  0 mm
21:26 17.6 °F /  -8 °C 9.2 °F /  -12.7 °C 1017.2 in /  34442.4 hPa NW 40.7 mph /  65.5 km/h 40.7 mph /  65.5 km/h 58 % 0.0 in /  0 mm
21:31 17.5 °F /  -8.1 °C 9.2 °F /  -12.7 °C 1016.8 in /  34428.8 hPa NNW 38.9 mph /  62.6 km/h 38.9 mph /  62.6 km/h 58 % 0.0 in /  0 mm
21:32 17.5 °F /  -8.1 °C 9.2 °F /  -12.7 °C 1016.8 in /  34428.8 hPa NNW 38.9 mph /  62.6 km/h 38.9 mph /  62.6 km/h 58 % 0.0 in /  0 mm
21:37 17.4 °F /  -8.1 °C 9.1 °F /  -12.7 °C 1017.2 in /  34442.4 hPa NW 31.5 mph /  50.7 km/h 31.5 mph /  50.7 km/h 58 % 0.0 in /  0 mm
21:42 17.4 °F /  -8.1 °C 9.1 °F /  -12.7 °C 1017.2 in /  34442.4 hPa NNW 37.0 mph /  59.5 km/h 37.0 mph /  59.5 km/h 58 % 0.0 in /  0 mm
21:43 17.3 °F /  -8.2 °C 9.0 °F /  -12.8 °C 1017.2 in /  34442.4 hPa NW 37.0 mph /  59.5 km/h 37.0 mph /  59.5 km/h 58 % 0.0 in /  0 mm
21:48 17.3 °F /  -8.2 °C 8.9 °F /  -12.8 °C 1017.2 in /  34442.4 hPa NW 35.2 mph /  56.6 km/h 35.2 mph /  56.6 km/h 58 % 0.0 in /  0 mm
21:49 17.3 °F /  -8.2 °C 8.9 °F /  -12.8 °C 1017.2 in /  34442.4 hPa NW 31.5 mph /  50.7 km/h 31.5 mph /  50.7 km/h 58 % 0.0 in /  0 mm
21:54 17.2 °F /  -8.2 °C 8.9 °F /  -12.8 °C 1017.5 in /  34452.6 hPa NW 38.9 mph /  62.6 km/h 38.9 mph /  62.6 km/h 58 % 0.0 in /  0 mm
21:59 17.2 °F /  -8.2 °C 8.8 °F /  -12.9 °C 1017.2 in /  34442.4 hPa NW 38.9 mph /  62.6 km/h 38.9 mph /  62.6 km/h 58 % 0.0 in /  0 mm
22:01 17.2 °F /  -8.2 °C 8.8 °F /  -12.9 °C 1017.5 in /  34452.6 hPa NW 40.2 mph /  64.7 km/h 40.2 mph /  64.7 km/h 58 % 0.0 in /  0 mm
22:05 17.2 °F /  -8.2 °C 8.6 °F /  -13 °C 1017.5 in /  34452.6 hPa WNW 37.0 mph /  59.5 km/h 37.0 mph /  59.5 km/h 57 % 0.0 in /  0 mm
22:07 17.2 °F /  -8.2 °C 8.6 °F /  -13 °C 1017.2 in /  34442.4 hPa NNW 48.1 mph /  77.4 km/h 48.1 mph /  77.4 km/h 57 % 0.0 in /  0 mm
22:11 17.2 °F /  -8.2 °C 8.6 °F /  -13 °C 1017.2 in /  34442.4 hPa North 37.0 mph /  59.5 km/h 37.0 mph /  59.5 km/h 57 % 0.0 in /  0 mm
22:12 17.1 °F /  -8.3 °C 8.5 °F /  -13.1 °C 1017.2 in /  34442.4 hPa WNW 37.0 mph /  59.5 km/h 37.0 mph /  59.5 km/h 57 % 0.0 in /  0 mm
22:17 17.1 °F /  -8.3 °C 8.7 °F /  -12.9 °C 1017.2 in /  34442.4 hPa NW 31.5 mph /  50.7 km/h 31.5 mph /  50.7 km/h 58 % 0.0 in /  0 mm
22:18 17.1 °F /  -8.3 °C 8.7 °F /  -12.9 °C 1017.2 in /  34442.4 hPa NW 31.5 mph /  50.7 km/h 31.5 mph /  50.7 km/h 58 % 0.0 in /  0 mm
22:19 17.1 °F /  -8.3 °C 8.7 °F /  -12.9 °C 1017.2 in /  34442.4 hPa WNW 31.5 mph /  50.7 km/h 31.5 mph /  50.7 km/h 58 % 0.0 in /  0 mm
22:23 17.0 °F /  -8.3 °C 8.7 °F /  -12.9 °C 1017.5 in /  34452.6 hPa NW 37.0 mph /  59.5 km/h 37.0 mph /  59.5 km/h 58 % 0.0 in /  0 mm
22:25 17.0 °F /  -8.3 °C 8.7 °F /  -12.9 °C 1017.2 in /  34442.4 hPa WNW 38.9 mph /  62.6 km/h 38.9 mph /  62.6 km/h 58 % 0.0 in /  0 mm
22:29 17.0 °F /  -8.3 °C 8.7 °F /  -12.9 °C 1017.5 in /  34452.6 hPa NW 33.8 mph /  54.4 km/h 33.8 mph /  54.4 km/h 58 % 0.0 in /  0 mm
22:34 17.0 °F /  -8.3 °C 8.7 °F /  -12.9 °C 1017.5 in /  34452.6 hPa WNW 40.7 mph /  65.5 km/h 40.7 mph /  65.5 km/h 58 % 0.0 in /  0 mm
22:35 16.9 °F /  -8.4 °C 8.6 °F /  -13 °C 1017.8 in /  34462.7 hPa NW 40.7 mph /  65.5 km/h 40.7 mph /  65.5 km/h 58 % 0.0 in /  0 mm
22:40 16.9 °F /  -8.4 °C 8.6 °F /  -13 °C 1017.5 in /  34452.6 hPa NW 25.7 mph /  41.4 km/h 38.6 mph /  62.1 km/h 58 % 0.0 in /  0 mm
22:41 16.9 °F /  -8.4 °C 8.6 °F /  -13 °C 1017.5 in /  34452.6 hPa NW 31.5 mph /  50.7 km/h 31.5 mph /  50.7 km/h 58 % 0.0 in /  0 mm
22:42 16.9 °F /  -8.4 °C 8.6 °F /  -13 °C 1017.5 in /  34452.6 hPa NW 33.8 mph /  54.4 km/h 33.8 mph /  54.4 km/h 58 % 0.0 in /  0 mm
22:47 17.0 °F /  -8.3 °C 8.7 °F /  -12.9 °C 1017.5 in /  34452.6 hPa NNW 37.0 mph /  59.5 km/h 37.0 mph /  59.5 km/h 58 % 0.0 in /  0 mm
22:48 16.9 °F /  -8.4 °C 8.6 °F /  -13 °C 1017.5 in /  34452.6 hPa NNW 35.2 mph /  56.6 km/h 35.2 mph /  56.6 km/h 58 % 0.0 in /  0 mm
22:53 16.9 °F /  -8.4 °C 8.6 °F /  -13 °C 1017.8 in /  34462.7 hPa NW 31.5 mph /  50.7 km/h 31.5 mph /  50.7 km/h 58 % 0.0 in /  0 mm
22:57 16.9 °F /  -8.4 °C 8.6 °F /  -13 °C 1017.8 in /  34462.7 hPa WNW 25.9 mph /  41.7 km/h 25.9 mph /  41.7 km/h 58 % 0.0 in /  0 mm
22:59 16.9 °F /  -8.4 °C 8.6 °F /  -13 °C 1017.8 in /  34462.7 hPa NW 31.5 mph /  50.7 km/h 31.5 mph /  50.7 km/h 58 % 0.0 in /  0 mm
23:04 16.8 °F /  -8.4 °C 8.5 °F /  -13.1 °C 1017.5 in /  34452.6 hPa NNW 31.5 mph /  50.7 km/h 31.5 mph /  50.7 km/h 58 % 0.0 in /  0 mm
23:07 16.8 °F /  -8.4 °C 8.5 °F /  -13.1 °C 1017.8 in /  34462.7 hPa NW 20.4 mph /  32.8 km/h 20.4 mph /  32.8 km/h 58 % 0.0 in /  0 mm
23:09 16.8 °F /  -8.4 °C 8.5 °F /  -13.1 °C 1017.8 in /  34462.7 hPa WNW 22.2 mph /  35.7 km/h 22.2 mph /  35.7 km/h 58 % 0.0 in /  0 mm
23:13 16.8 °F /  -8.4 °C 8.4 °F /  -13.1 °C 1017.8 in /  34462.7 hPa NW 25.7 mph /  41.4 km/h 25.7 mph /  41.4 km/h 58 % 0.0 in /  0 mm
23:19 16.9 °F /  -8.4 °C 8.6 °F /  -13 °C 1018.2 in /  34476.3 hPa WNW 25.7 mph /  41.4 km/h 25.7 mph /  41.4 km/h 58 % 0.0 in /  0 mm
23:24 16.9 °F /  -8.4 °C 8.6 °F /  -13 °C 1017.8 in /  34462.7 hPa NW 22.2 mph /  35.7 km/h 22.2 mph /  35.7 km/h 58 % 0.0 in /  0 mm
23:25 16.9 °F /  -8.4 °C 8.6 °F /  -13 °C 1017.8 in /  34462.7 hPa NW 22.2 mph /  35.7 km/h 22.2 mph /  35.7 km/h 58 % 0.0 in /  0 mm
23:30 16.8 °F /  -8.4 °C 8.8 °F /  -12.9 °C 1018.2 in /  34476.3 hPa WNW 16.7 mph /  26.9 km/h 16.7 mph /  26.9 km/h 59 % 0.0 in /  0 mm
23:35 16.8 °F /  -8.4 °C 8.7 °F /  -12.9 °C 1018.2 in /  34476.3 hPa NW 9.3 mph /  15 km/h 9.3 mph /  15 km/h 59 % 0.0 in /  0 mm
23:37 16.7 °F /  -8.5 °C 8.7 °F /  -12.9 °C 1018.2 in /  34476.3 hPa NW 9.7 mph /  15.6 km/h 9.7 mph /  15.6 km/h 59 % 0.0 in /  0 mm
23:42 16.6 °F /  -8.6 °C 8.6 °F /  -13 °C 1018.2 in /  34476.3 hPa West 14.8 mph /  23.8 km/h 14.8 mph /  23.8 km/h 59 % 0.0 in /  0 mm
23:43 16.6 °F /  -8.6 °C 8.8 °F /  -12.9 °C 1018.5 in /  34486.4 hPa West 11.3 mph /  18.2 km/h 11.3 mph /  18.2 km/h 60 % 0.0 in /  0 mm
23:48 16.5 °F /  -8.6 °C 8.7 °F /  -12.9 °C 1018.5 in /  34486.4 hPa West 11.1 mph /  17.9 km/h 11.1 mph /  17.9 km/h 60 % 0.0 in /  0 mm
23:49 16.4 °F /  -8.7 °C 8.9 °F /  -12.8 °C 1018.2 in /  34476.3 hPa WSW 14.8 mph /  23.8 km/h 14.8 mph /  23.8 km/h 61 % 0.0 in /  0 mm
23:54 16.2 °F /  -8.8 °C 9.1 °F /  -12.7 °C 1018.2 in /  34476.3 hPa West 20.4 mph /  32.8 km/h 20.4 mph /  32.8 km/h 63 % 0.0 in /  0 mm
23:55 16.1 °F /  -8.8 °C 9.1 °F /  -12.7 °C 1018.2 in /  34476.3 hPa WNW 20.4 mph /  32.8 km/h 20.4 mph /  32.8 km/h 63 % 0.0 in /  0 mm
23:59 15.9 °F /  -8.9 °C 9.1 °F /  -12.7 °C 1018.2 in /  34476.3 hPa West 20.4 mph /  32.8 km/h 20.4 mph /  32.8 km/h 64 % 0.0 in /  0 mm
Puerto Banus, Marbella
Elogios de Weather Underground - 3 mb

Guión original por  Jim McMurry - jmcmurry@mwt.net Adaptado para la plantilla por  Wim van der Kuil - Leuven-Template.eu

Usted encontrará nuestra información del tiempo también en:

Weather Underground

Iberian Peninsula Weather Network